Observation data for Estelline on 04/26/2019      Previous  Date  Next       Current Mesonet Observations  Soil Data  Daily Summary Page  Observations in Plain Language
KES1 260500Z 20001KT 14/10 A3015 RMK A01 T01400100  RH  076%=      5-min Rain = 0
KES1 260501Z 20001KT 14/10 A3015 RMK A01 T01440100  RH  075%=      5-min Rain = 0
KES1 260502Z 20000KT 15/10 A3015 RMK A01 T01450100  RH  074%=      5-min Rain = 0
KES1 260503Z 00000KT 15/10 A3015 RMK A01 T01460100  RH  074%=      5-min Rain = 0
KES1 260504Z 00000KT 15/10 A3015 RMK A01 T01460100  RH  074%=      5-min Rain = 0
KES1 260505Z 00000KT 15/10 A3015 RMK A01 T01460100  RH  074%=      5-min Rain = 0
KES1 260506Z 00000KT 15/10 A3015 RMK A01 T01460099  RH  073%=      5-min Rain = 0
KES1 260507Z 00000KT 15/10 A3015 RMK A01 T01460100  RH  074%=      5-min Rain = 0
KES1 260508Z 00000KT 15/10 A3015 RMK A01 T01460101  RH  074%=      5-min Rain = 0
KES1 260509Z 00000KT 15/10 A3015 RMK A01 T01450102  RH  075%=      5-min Rain = 0
KES1 260510Z 00000KT 14/11 A3015 RMK A01 T01430105  RH  078%=      5-min Rain = 0
KES1 260511Z 00000KT 14/10 A3015 RMK A01 T01410104  RH  079%=      5-min Rain = 0
KES1 260512Z 00000KT 14/10 A3015 RMK A01 T01370102  RH  079%=      5-min Rain = 0
KES1 260513Z 22000KT 13/10 A3016 RMK A01 T01340101  RH  080%=      5-min Rain = 0
KES1 260514Z 24003KT 13/10 A3016 RMK A01 T01330101  RH  081%=      5-min Rain = 0
KES1 260515Z 23003KT 13/10 A3016 RMK A01 T01320102  RH  082%=      5-min Rain = 0
KES1 260516Z 23004KT 13/10 A3016 RMK A01 T01310101  RH  082%=      5-min Rain = 0
KES1 260517Z 23004KT 13/10 A3016 RMK A01 T01310100  RH  082%=      5-min Rain = 0
KES1 260518Z 23004KT 13/10 A3016 RMK A01 T01320100  RH  081%=      5-min Rain = 0
KES1 260519Z 22004KT 13/10 A3016 RMK A01 T01330100  RH  080%=      5-min Rain = 0
KES1 260520Z 22004KT 13/10 A3016 RMK A01 T01330100  RH  080%=      5-min Rain = 0
KES1 260521Z 23003KT 13/10 A3016 RMK A01 T01320099  RH  080%=      5-min Rain = 0
KES1 260522Z 23003KT 13/10 A3016 RMK A01 T01330099  RH  080%=      5-min Rain = 0
KES1 260523Z 22003KT 13/10 A3016 RMK A01 T01340099  RH  080%=      5-min Rain = 0
KES1 260524Z 22003KT 13/10 A3016 RMK A01 T01340099  RH  079%=      5-min Rain = 0
KES1 260525Z 22002KT 13/10 A3016 RMK A01 T01340099  RH  079%=      5-min Rain = 0
KES1 260526Z 22002KT 13/10 A3016 RMK A01 T01340099  RH  079%=      5-min Rain = 0
KES1 260527Z 23003KT 13/10 A3016 RMK A01 T01340100  RH  080%=      5-min Rain = 0
KES1 260528Z 23002KT 13/10 A3016 RMK A01 T01330099  RH  080%=      5-min Rain = 0
KES1 260529Z 23003KT 13/10 A3016 RMK A01 T01340099  RH  079%=      5-min Rain = 0
KES1 260530Z 23002KT 14/10 A3016 RMK A01 T01350099  RH  079%=      5-min Rain = 0
KES1 260531Z 23002KT 14/10 A3016 RMK A01 T01350099  RH  078%=      5-min Rain = 0
KES1 260532Z 23002KT 14/10 A3016 RMK A01 T01350099  RH  079%=      5-min Rain = 0
KES1 260533Z 23002KT 13/10 A3016 RMK A01 T01340099  RH  079%=      5-min Rain = 0
KES1 260534Z 23003KT 13/10 A3016 RMK A01 T01340099  RH  080%=      5-min Rain = 0
KES1 260535Z 23003KT 13/10 A3016 RMK A01 T01340098  RH  079%=      5-min Rain = 0
KES1 260536Z 24004KT 13/10 A3016 RMK A01 T01340098  RH  079%=      5-min Rain = 0
KES1 260537Z 24004KT 14/10 A3016 RMK A01 T01350098  RH  079%=      5-min Rain = 0
KES1 260538Z 23004KT 14/10 A3016 RMK A01 T01350098  RH  079%=      5-min Rain = 0
KES1 260539Z 24004KT 13/10 A3016 RMK A01 T01340099  RH  079%=      5-min Rain = 0
KES1 260540Z 24003KT 13/10 A3016 RMK A01 T01340099  RH  079%=      5-min Rain = 0
KES1 260541Z 24003KT 13/10 A3016 RMK A01 T01330098  RH  080%=      5-min Rain = 0
KES1 260542Z 24002KT 13/10 A3016 RMK A01 T01320098  RH  080%=      5-min Rain = 0
KES1 260543Z 24002KT 13/10 A3016 RMK A01 T01320098  RH  080%=      5-min Rain = 0
KES1 260544Z 26002KT 13/10 A3016 RMK A01 T01320098  RH  080%=      5-min Rain = 0
KES1 260545Z 27002KT 13/10 A3016 RMK A01 T01310098  RH  080%=      5-min Rain = 0
KES1 260546Z 28002KT 13/10 A3016 RMK A01 T01300098  RH  081%=      5-min Rain = 0
KES1 260547Z 29002KT 13/10 A3016 RMK A01 T01290098  RH  081%=      5-min Rain = 0
KES1 260548Z 29002KT 13/10 A3016 RMK A01 T01290098  RH  082%=      5-min Rain = 0
KES1 260549Z 29002KT 13/10 A3016 RMK A01 T01280098  RH  082%=      5-min Rain = 0
KES1 260550Z 29003KT 13/10 A3016 RMK A01 T01280098  RH  082%=      5-min Rain = 0
KES1 260551Z 29003KT 13/10 A3016 RMK A01 T01280098  RH  082%=      5-min Rain = 0
KES1 260552Z 29003KT 13/10 A3016 RMK A01 T01280098  RH  082%=      5-min Rain = 0
KES1 260553Z 27003KT 13/10 A3016 RMK A01 T01290098  RH  082%=      5-min Rain = 0
KES1 260554Z 24002KT 13/10 A3016 RMK A01 T01290098  RH  081%=      5-min Rain = 0
KES1 260555Z 24002KT 13/10 A3016 RMK A01 T01300098  RH  081%=      5-min Rain = 0
KES1 260556Z 24002KT 13/10 A3016 RMK A01 T01300098  RH  081%=      5-min Rain = 0
KES1 260557Z 23001KT 13/10 A3016 RMK A01 T01310098  RH  081%=      5-min Rain = 0
KES1 260558Z 23001KT 13/10 A3016 RMK A01 T01310098  RH  081%=      5-min Rain = 0
KES1 260559Z 23001KT 13/10 A3017 RMK A01 T01300098  RH  081%=      5-min Rain = 0
KES1 260600Z 23001KT 13/10 A3017 RMK A01 T01290098  RH  082%=      5-min Rain = 0
KES1 260601Z 23000KT 13/10 A3017 RMK A01 T01280098  RH  082%=      5-min Rain = 0
KES1 260602Z 00000KT 13/10 A3017 RMK A01 T01270098  RH  083%=      5-min Rain = 0
KES1 260603Z 00000KT 13/10 A3017 RMK A01 T01270098  RH  083%=      5-min Rain = 0
KES1 260604Z 00000KT 13/10 A3017 RMK A01 T01260098  RH  083%=      5-min Rain = 0
KES1 260605Z 00000KT 13/10 A3017 RMK A01 T01250098  RH  083%=      5-min Rain = 0
KES1 260606Z 34000KT 13/10 A3017 RMK A01 T01250098  RH  084%=      5-min Rain = 0
KES1 260607Z 34001KT 12/10 A3017 RMK A01 T01240098  RH  084%=      5-min Rain = 0
KES1 260608Z 34001KT 12/10 A3017 RMK A01 T01240098  RH  084%=      5-min Rain = 0
KES1 260609Z 34001KT 12/10 A3017 RMK A01 T01230098  RH  085%=      5-min Rain = 0
KES1 260610Z 33001KT 12/10 A3017 RMK A01 T01220098  RH  085%=      5-min Rain = 0
KES1 260611Z 33001KT 12/10 A3017 RMK A01 T01220098  RH  085%=      5-min Rain = 0
KES1 260612Z 33001KT 12/10 A3017 RMK A01 T01220098  RH  085%=      5-min Rain = 0
KES1 260613Z 32002KT 12/10 A3017 RMK A01 T01230098  RH  085%=      5-min Rain = 0
KES1 260614Z 32001KT 12/10 A3017 RMK A01 T01240098  RH  084%=      5-min Rain = 0
KES1 260615Z 32001KT 13/10 A3017 RMK A01 T01260098  RH  083%=      5-min Rain = 0
KES1 260616Z 33001KT 13/10 A3017 RMK A01 T01270099  RH  083%=      5-min Rain = 0
KES1 260617Z 33002KT 13/10 A3017 RMK A01 T01270099  RH  083%=      5-min Rain = 0
KES1 260618Z 34002KT 13/10 A3017 RMK A01 T01290099  RH  082%=      5-min Rain = 0
KES1 260619Z 34001KT 13/10 A3017 RMK A01 T01310099  RH  081%=      5-min Rain = 0
KES1 260620Z 34001KT 13/10 A3017 RMK A01 T01300099  RH  081%=      5-min Rain = 0
KES1 260621Z 34001KT 13/10 A3017 RMK A01 T01290098  RH  081%=      5-min Rain = 0
KES1 260622Z 33002KT 13/10 A3018 RMK A01 T01290098  RH  082%=      5-min Rain = 0
KES1 260623Z 33002KT 13/10 A3018 RMK A01 T01290098  RH  082%=      5-min Rain = 0
KES1 260624Z 33002KT 13/10 A3018 RMK A01 T01290098  RH  081%=      5-min Rain = 0
KES1 260625Z 35002KT 13/10 A3018 RMK A01 T01300098  RH  081%=      5-min Rain = 0
KES1 260626Z 33002KT 13/10 A3018 RMK A01 T01280098  RH  082%=      5-min Rain = 0
KES1 260627Z 32001KT 13/10 A3018 RMK A01 T01280098  RH  082%=      5-min Rain = 0
KES1 260628Z 31002KT 13/10 A3018 RMK A01 T01280098  RH  082%=      5-min Rain = 0
KES1 260629Z 31002KT 13/10 A3018 RMK A01 T01280098  RH  082%=      5-min Rain = 0
KES1 260630Z 31002KT 13/10 A3018 RMK A01 T01290098  RH  082%=      5-min Rain = 0
KES1 260631Z 30002KT 13/10 A3018 RMK A01 T01290098  RH  082%=      5-min Rain = 0
KES1 260632Z 30002KT 13/10 A3018 RMK A01 T01300098  RH  081%=      5-min Rain = 0
KES1 260633Z 30001KT 13/10 A3018 RMK A01 T01300098  RH  081%=      5-min Rain = 0
KES1 260634Z 29002KT 13/10 A3018 RMK A01 T01310098  RH  081%=      5-min Rain = 0
KES1 260635Z 28002KT 13/10 A3018 RMK A01 T01310098  RH  080%=      5-min Rain = 0
KES1 260636Z 29002KT 13/10 A3018 RMK A01 T01320099  RH  080%=      5-min Rain = 0
KES1 260637Z 29002KT 13/10 A3018 RMK A01 T01310098  RH  080%=      5-min Rain = 0
KES1 260638Z 29002KT 13/10 A3018 RMK A01 T01290097  RH  081%=      5-min Rain = 0
KES1 260639Z 29002KT 13/10 A3018 RMK A01 T01280097  RH  082%=      5-min Rain = 0
KES1 260640Z 30002KT 13/10 A3018 RMK A01 T01270098  RH  082%=      5-min Rain = 0
KES1 260641Z 30002KT 13/10 A3018 RMK A01 T01270097  RH  082%=      5-min Rain = 0
KES1 260642Z 31002KT 13/10 A3018 RMK A01 T01270097  RH  082%=      5-min Rain = 0
KES1 260643Z 31001KT 13/10 A3018 RMK A01 T01250096  RH  083%=      5-min Rain = 0
KES1 260644Z 31002KT 12/10 A3018 RMK A01 T01240096  RH  083%=      5-min Rain = 0
KES1 260645Z 31002KT 12/10 A3018 RMK A01 T01230097  RH  084%=      5-min Rain = 0
KES1 260646Z 31002KT 12/10 A3018 RMK A01 T01230097  RH  084%=      5-min Rain = 0
KES1 260647Z 30002KT 12/10 A3018 RMK A01 T01240097  RH  084%=      5-min Rain = 0
KES1 260648Z 30002KT 12/10 A3018 RMK A01 T01240097  RH  084%=      5-min Rain = 0
KES1 260649Z 31002KT 12/10 A3018 RMK A01 T01240097  RH  084%=      5-min Rain = 0
KES1 260650Z 32002KT 12/10 A3018 RMK A01 T01240097  RH  084%=      5-min Rain = 0
KES1 260651Z 32002KT 12/10 A3018 RMK A01 T01240098  RH  084%=      5-min Rain = 0
KES1 260652Z 32002KT 12/10 A3018 RMK A01 T01230097  RH  084%=      5-min Rain = 0
KES1 260653Z 31002KT 12/10 A3018 RMK A01 T01230097  RH  084%=      5-min Rain = 0
KES1 260654Z 31002KT 12/10 A3018 RMK A01 T01240097  RH  084%=      5-min Rain = 0
KES1 260655Z 31002KT 13/10 A3018 RMK A01 T01250097  RH  084%=      5-min Rain = 0
KES1 260656Z 30002KT 13/10 A3018 RMK A01 T01250098  RH  083%=      5-min Rain = 0
KES1 260657Z 30002KT 13/10 A3018 RMK A01 T01260097  RH  083%=      5-min Rain = 0
KES1 260658Z 29001KT 13/10 A3018 RMK A01 T01270098  RH  082%=      5-min Rain = 0
KES1 260659Z 29001KT 13/10 A3018 RMK A01 T01270097  RH  082%=      5-min Rain = 0
KES1 260700Z 29001KT 13/10 A3018 RMK A01 T01270098  RH  082%=      5-min Rain = 0
KES1 260701Z 29002KT 13/10 A3018 RMK A01 T01270098  RH  082%=      5-min Rain = 0
KES1 260702Z 29001KT 13/10 A3018 RMK A01 T01270097  RH  082%=      5-min Rain = 0
KES1 260703Z 29002KT 13/10 A3018 RMK A01 T01280097  RH  082%=      5-min Rain = 0
KES1 260704Z 30002KT 13/10 A3018 RMK A01 T01280097  RH  082%=      5-min Rain = 0
KES1 260705Z 31002KT 13/10 A3018 RMK A01 T01280097  RH  082%=      5-min Rain = 0
KES1 260706Z 30002KT 13/10 A3018 RMK A01 T01280097  RH  081%=      5-min Rain = 0
KES1 260707Z 30002KT 13/10 A3018 RMK A01 T01280097  RH  081%=      5-min Rain = 0
KES1 260708Z 31002KT 13/10 A3018 RMK A01 T01280097  RH  081%=      5-min Rain = 0
KES1 260709Z 30002KT 13/10 A3018 RMK A01 T01280097  RH  082%=      5-min Rain = 0
KES1 260710Z 31002KT 13/10 A3018 RMK A01 T01280097  RH  082%=      5-min Rain = 0
KES1 260711Z 32002KT 13/10 A3018 RMK A01 T01270097  RH  082%=      5-min Rain = 0
KES1 260712Z 32002KT 12/10 A3018 RMK A01 T01240095  RH  082%=      5-min Rain = 0
KES1 260713Z 32002KT 12/10 A3018 RMK A01 T01220095  RH  084%=      5-min Rain = 0
KES1 260714Z 33002KT 12/10 A3018 RMK A01 T01210097  RH  085%=      5-min Rain = 0
KES1 260715Z 34002KT 12/10 A3018 RMK A01 T01210097  RH  085%=      5-min Rain = 0
KES1 260716Z 34002KT 12/10 A3018 RMK A01 T01210097  RH  085%=      5-min Rain = 0
KES1 260717Z 34002KT 12/10 A3018 RMK A01 T01200096  RH  085%=      5-min Rain = 0
KES1 260718Z 34003KT 12/10 A3018 RMK A01 T01200097  RH  086%=      5-min Rain = 0
KES1 260719Z 33003KT 12/10 A3018 RMK A01 T01200098  RH  086%=      5-min Rain = 0
KES1 260720Z 34002KT 12/10 A3018 RMK A01 T01210098  RH  086%=      5-min Rain = 0
KES1 260721Z 34002KT 12/10 A3018 RMK A01 T01220098  RH  085%=      5-min Rain = 0
KES1 260722Z 33002KT 12/10 A3018 RMK A01 T01220097  RH  085%=      5-min Rain = 0
KES1 260723Z 33002KT 12/10 A3018 RMK A01 T01220098  RH  085%=      5-min Rain = 0
KES1 260724Z 33002KT 12/10 A3018 RMK A01 T01220097  RH  085%=      5-min Rain = 0
KES1 260725Z 33002KT 12/10 A3018 RMK A01 T01220098  RH  085%=      5-min Rain = 0
KES1 260726Z 32002KT 12/10 A3018 RMK A01 T01230098  RH  085%=      5-min Rain = 0
KES1 260727Z 32002KT 12/10 A3018 RMK A01 T01230098  RH  085%=      5-min Rain = 0
KES1 260728Z 31002KT 12/10 A3018 RMK A01 T01230098  RH  085%=      5-min Rain = 0
KES1 260729Z 31002KT 12/10 A3018 RMK A01 T01230098  RH  085%=      5-min Rain = 0
KES1 260730Z 31002KT 12/10 A3018 RMK A01 T01230099  RH  085%=      5-min Rain = 0
KES1 260731Z 31002KT 12/10 A3018 RMK A01 T01230099  RH  085%=      5-min Rain = 0
KES1 260732Z 31002KT 12/10 A3018 RMK A01 T01230099  RH  086%=      5-min Rain = 0
KES1 260733Z 31002KT 12/10 A3018 RMK A01 T01230100  RH  086%=      5-min Rain = 0
KES1 260734Z 31002KT 12/10 A3018 RMK A01 T01230099  RH  086%=      5-min Rain = 0
KES1 260735Z 31002KT 12/10 A3018 RMK A01 T01230099  RH  085%=      5-min Rain = 0
KES1 260736Z 31002KT 12/10 A3018 RMK A01 T01230099  RH  085%=      5-min Rain = 0
KES1 260737Z 32003KT 12/10 A3018 RMK A01 T01230100  RH  086%=      5-min Rain = 0
KES1 260738Z 32002KT 12/10 A3018 RMK A01 T01220100  RH  086%=      5-min Rain = 0
KES1 260739Z 32002KT 12/10 A3018 RMK A01 T01220099  RH  086%=      5-min Rain = 0
KES1 260740Z 32003KT 12/10 A3018 RMK A01 T01210099  RH  086%=      5-min Rain = 0
KES1 260741Z 32002KT 12/10 A3018 RMK A01 T01200098  RH  086%=      5-min Rain = 0
KES1 260742Z 32002KT 12/10 A3018 RMK A01 T01200098  RH  086%=      5-min Rain = 0
KES1 260743Z 31002KT 12/10 A3018 RMK A01 T01190098  RH  087%=      5-min Rain = 0
KES1 260744Z 32002KT 12/10 A3018 RMK A01 T01180097  RH  087%=      5-min Rain = 0
KES1 260745Z 32002KT 12/10 A3018 RMK A01 T01180097  RH  087%=      5-min Rain = 0
KES1 260746Z 33002KT 12/10 A3018 RMK A01 T01170097  RH  088%=      5-min Rain = 0
KES1 260747Z 32001KT 12/10 A3018 RMK A01 T01160096  RH  087%=      5-min Rain = 0
KES1 260748Z 32002KT 12/10 A3018 RMK A01 T01160096  RH  088%=      5-min Rain = 0
KES1 260749Z 32001KT 12/10 A3018 RMK A01 T01150096  RH  088%=      5-min Rain = 0
KES1 260750Z 31002KT 12/10 A3018 RMK A01 T01150096  RH  089%=      5-min Rain = 0
KES1 260751Z 31002KT 12/10 A3018 RMK A01 T01150097  RH  089%=      5-min Rain = 0
KES1 260752Z 31001KT 12/10 A3018 RMK A01 T01150097  RH  089%=      5-min Rain = 0
KES1 260753Z 31001KT 12/10 A3018 RMK A01 T01150097  RH  089%=      5-min Rain = 0
KES1 260754Z 32002KT 12/10 A3018 RMK A01 T01150097  RH  089%=      5-min Rain = 0
KES1 260755Z 31002KT 12/10 A3018 RMK A01 T01150097  RH  089%=      5-min Rain = 0
KES1 260756Z 31002KT 12/10 A3018 RMK A01 T01150097  RH  089%=      5-min Rain = 0
KES1 260757Z 32002KT 12/10 A3018 RMK A01 T01150097  RH  089%=      5-min Rain = 0
KES1 260758Z 33001KT 12/10 A3018 RMK A01 T01160097  RH  088%=      5-min Rain = 0
KES1 260759Z 34002KT 12/10 A3018 RMK A01 T01150096  RH  088%=      5-min Rain = 0
KES1 260800Z 34002KT 12/10 A3018 RMK A01 T01150096  RH  088%=      5-min Rain = 0
KES1 260801Z 34002KT 12/10 A3018 RMK A01 T01150096  RH  088%=      5-min Rain = 0
KES1 260802Z 35002KT 12/10 A3018 RMK A01 T01150097  RH  089%=      5-min Rain = 0
KES1 260803Z 35002KT 12/10 A3018 RMK A01 T01150097  RH  089%=      5-min Rain = 0
KES1 260804Z 35002KT 11/10 A3018 RMK A01 T01140096  RH  089%=      5-min Rain = 0
KES1 260805Z 35002KT 11/10 A3018 RMK A01 T01140096  RH  089%=      5-min Rain = 0
KES1 260806Z 35002KT 11/10 A3018 RMK A01 T01140097  RH  089%=      5-min Rain = 0
KES1 260807Z 35002KT 11/10 A3018 RMK A01 T01140097  RH  089%=      5-min Rain = 0
KES1 260808Z 34001KT 11/10 A3018 RMK A01 T01140097  RH  089%=      5-min Rain = 0
KES1 260809Z 33001KT 11/10 A3018 RMK A01 T01140097  RH  089%=      5-min Rain = 0
KES1 260810Z 32001KT 11/10 A3018 RMK A01 T01140097  RH  089%=      5-min Rain = 0
KES1 260811Z 32002KT 11/10 A3018 RMK A01 T01140097  RH  089%=      5-min Rain = 0
KES1 260812Z 32002KT 12/10 A3018 RMK A01 T01150097  RH  089%=      5-min Rain = 0
KES1 260813Z 32002KT 12/10 A3018 RMK A01 T01150097  RH  089%=      5-min Rain = 0
KES1 260814Z 32002KT 12/10 A3018 RMK A01 T01150098  RH  089%=      5-min Rain = 0
KES1 260815Z 32002KT 12/10 A3018 RMK A01 T01150098  RH  089%=      5-min Rain = 0
KES1 260816Z 33002KT 12/10 A3018 RMK A01 T01160097  RH  089%=      5-min Rain = 0
KES1 260817Z 33002KT 12/10 A3018 RMK A01 T01160097  RH  088%=      5-min Rain = 0
KES1 260818Z 32003KT 12/10 A3018 RMK A01 T01150096  RH  088%=      5-min Rain = 0
KES1 260819Z 32003KT 12/10 A3018 RMK A01 T01150097  RH  089%=      5-min Rain = 0
KES1 260820Z 32002KT 12/10 A3018 RMK A01 T01150098  RH  089%=      5-min Rain = 0
KES1 260821Z 33001KT 12/10 A3018 RMK A01 T01150097  RH  089%=      5-min Rain = 0
KES1 260822Z 32002KT 11/09 A3018 RMK A01 T01130091  RH  087%=      5-min Rain = 0
KES1 260823Z 30002KT 11/09 A3019 RMK A01 T01110094  RH  089%=      5-min Rain = 0
KES1 260824Z 30003KT 11/10 A3019 RMK A01 T01120096  RH  090%=      5-min Rain = 0
KES1 260825Z 30001KT 11/10 A3019 RMK A01 T01120097  RH  090%=      5-min Rain = 0
KES1 260826Z 30001KT 11/09 A3019 RMK A01 T01110092  RH  088%=      5-min Rain = 0
KES1 260827Z 30002KT 11/09 A3019 RMK A01 T01090090  RH  088%=      5-min Rain = 0
KES1 260828Z 30002KT 11/09 A3019 RMK A01 T01090093  RH  090%=      5-min Rain = 0
KES1 260829Z 30003KT 11/10 A3019 RMK A01 T01090095  RH  091%=      5-min Rain = 0
KES1 260830Z 30003KT 11/10 A3019 RMK A01 T01100097  RH  091%=      5-min Rain = 0
KES1 260831Z 30003KT 11/10 A3019 RMK A01 T01110097  RH  091%=      5-min Rain = 0
KES1 260832Z 30003KT 11/10 A3019 RMK A01 T01110097  RH  091%=      5-min Rain = 0
KES1 260833Z 30003KT 11/10 A3019 RMK A01 T01120096  RH  090%=      5-min Rain = 0
KES1 260834Z 29004KT 11/10 A3019 RMK A01 T01120096  RH  090%=      5-min Rain = 0
KES1 260835Z 29004KT 11/10 A3019 RMK A01 T01120095  RH  089%=      5-min Rain = 0
KES1 260836Z 29004KT 11/10 A3019 RMK A01 T01120095  RH  089%=      5-min Rain = 0
KES1 260837Z 28003KT 11/10 A3019 RMK A01 T01120095  RH  089%=      5-min Rain = 0
KES1 260838Z 28003KT 11/09 A3019 RMK A01 T01110094  RH  089%=      5-min Rain = 0
KES1 260839Z 27003KT 11/09 A3019 RMK A01 T01110094  RH  090%=      5-min Rain = 0
KES1 260840Z 27003KT 11/09 A3019 RMK A01 T01110094  RH  090%=      5-min Rain = 0
KES1 260841Z 26003KT 11/09 A3019 RMK A01 T01100094  RH  090%=      5-min Rain = 0
KES1 260842Z 25003KT 11/09 A3019 RMK A01 T01090093  RH  090%=      5-min Rain = 0
KES1 260843Z 25003KT 11/09 A3019 RMK A01 T01090092  RH  090%=      5-min Rain = 0
KES1 260844Z 25004KT 11/09 A302 RMK A01 T01080091  RH  090%=      5-min Rain = 0
KES1 260845Z 25004KT 11/09 A302 RMK A01 T01070091  RH  090%=      5-min Rain = 0
KES1 260846Z 24004KT 11/09 A302 RMK A01 T01050090  RH  090%=      5-min Rain = 0
KES1 260847Z 24004KT 11/09 A302 RMK A01 T01050090  RH  091%=      5-min Rain = 0
KES1 260848Z 24005KT 10/09 A302 RMK A01 T01040089  RH  091%=      5-min Rain = 0
KES1 260849Z 24005KT 10/09 A302 RMK A01 T01030089  RH  091%=      5-min Rain = 0
KES1 260850Z 25005KT 10/09 A302 RMK A01 T01020089  RH  092%=      5-min Rain = 0
KES1 260851Z 25004KT 10/09 A302 RMK A01 T01020090  RH  092%=      5-min Rain = 0
KES1 260852Z 25004KT 10/09 A302 RMK A01 T01020090  RH  092%=      5-min Rain = 0
KES1 260853Z 24004KT 10/09 A302 RMK A01 T01020090  RH  092%=      5-min Rain = 0
KES1 260854Z 24003KT 10/09 A302 RMK A01 T01020090  RH  092%=      5-min Rain = 0
KES1 260855Z 24004KT 10/09 A302 RMK A01 T01030090  RH  092%=      5-min Rain = 0
KES1 260856Z 24003KT 10/09 A302 RMK A01 T01030090  RH  092%=      5-min Rain = 0
KES1 260857Z 24004KT 10/09 A302 RMK A01 T01020089  RH  092%=      5-min Rain = 0
KES1 260858Z 24004KT 10/09 A302 RMK A01 T01020089  RH  092%=      5-min Rain = 0
KES1 260859Z 24004KT 10/09 A302 RMK A01 T01020090  RH  092%=      5-min Rain = 0
KES1 260900Z 24004KT 10/09 A302 RMK A01 T01030090  RH  092%=      5-min Rain = 0
KES1 260901Z 24004KT 10/09 A302 RMK A01 T01030090  RH  092%=      5-min Rain = 0
KES1 260902Z 24004KT 10/09 A3021 RMK A01 T01030090  RH  091%=      5-min Rain = 0
KES1 260903Z 24004KT 10/09 A3021 RMK A01 T01030090  RH  091%=      5-min Rain = 0
KES1 260904Z 25005KT 10/09 A3021 RMK A01 T01040090  RH  091%=      5-min Rain = 0
KES1 260905Z 24004KT 10/09 A3021 RMK A01 T01040089  RH  091%=      5-min Rain = 0
KES1 260906Z 25004KT 10/09 A3021 RMK A01 T01040090  RH  091%=      5-min Rain = 0
KES1 260907Z 26004KT 10/09 A3021 RMK A01 T01040090  RH  091%=      5-min Rain = 0
KES1 260908Z 25003KT 10/09 A3021 RMK A01 T01040090  RH  091%=      5-min Rain = 0
KES1 260909Z 26003KT 10/09 A3021 RMK A01 T01040090  RH  091%=      5-min Rain = 0
KES1 260910Z 26003KT 10/09 A3021 RMK A01 T01040090  RH  091%=      5-min Rain = 0
KES1 260911Z 26003KT 10/09 A3021 RMK A01 T01040090  RH  091%=      5-min Rain = 0
KES1 260912Z 26003KT 11/09 A3021 RMK A01 T01050091  RH  091%=      5-min Rain = 0
KES1 260913Z 25002KT 11/09 A3021 RMK A01 T01050092  RH  091%=      5-min Rain = 0
KES1 260914Z 26002KT 11/09 A3021 RMK A01 T01060092  RH  091%=      5-min Rain = 0
KES1 260915Z 24001KT 11/09 A3021 RMK A01 T01060091  RH  091%=      5-min Rain = 0
KES1 260916Z 24000KT 11/09 A3021 RMK A01 T01060091  RH  090%=      5-min Rain = 0
KES1 260917Z 25001KT 11/09 A3021 RMK A01 T01060090  RH  090%=      5-min Rain = 0
KES1 260918Z 26001KT 11/09 A3021 RMK A01 T01050090  RH  090%=      5-min Rain = 0
KES1 260919Z 26001KT 11/09 A3021 RMK A01 T01050091  RH  091%=      5-min Rain = 0
KES1 260920Z 26002KT 11/09 A3021 RMK A01 T01060093  RH  091%=      5-min Rain = 0
KES1 260921Z 26002KT 11/09 A3021 RMK A01 T01080093  RH  091%=      5-min Rain = 0
KES1 260922Z 26002KT 11/09 A3021 RMK A01 T01080093  RH  090%=      5-min Rain = 0
KES1 260923Z 26003KT 11/09 A3021 RMK A01 T01090093  RH  090%=      5-min Rain = 0
KES1 260924Z 27003KT 11/09 A3021 RMK A01 T01100092  RH  089%=      5-min Rain = 0
KES1 260925Z 27003KT 11/09 A3021 RMK A01 T01100092  RH  089%=      5-min Rain = 0
KES1 260926Z 27003KT 11/09 A3021 RMK A01 T01100092  RH  089%=      5-min Rain = 0
KES1 260927Z 27002KT 11/09 A3021 RMK A01 T01110092  RH  089%=      5-min Rain = 0
KES1 260928Z 27002KT 11/09 A3021 RMK A01 T01110092  RH  088%=      5-min Rain = 0
KES1 260929Z 27002KT 11/09 A3021 RMK A01 T01100092  RH  088%=      5-min Rain = 0
KES1 260930Z 27002KT 11/09 A3021 RMK A01 T01100092  RH  088%=      5-min Rain = 0
KES1 260931Z 26002KT 11/09 A3021 RMK A01 T01110092  RH  089%=      5-min Rain = 0
KES1 260932Z 26001KT 11/09 A3021 RMK A01 T01100092  RH  089%=      5-min Rain = 0
KES1 260933Z 26001KT 11/09 A3021 RMK A01 T01090091  RH  089%=      5-min Rain = 0
KES1 260934Z 24001KT 11/09 A3021 RMK A01 T01080090  RH  089%=      5-min Rain = 0
KES1 260935Z 25001KT 11/09 A3021 RMK A01 T01070089  RH  089%=      5-min Rain = 0
KES1 260936Z 24001KT 11/09 A3021 RMK A01 T01060089  RH  089%=      5-min Rain = 0
KES1 260937Z 23001KT 11/09 A3021 RMK A01 T01050090  RH  090%=      5-min Rain = 0
KES1 260938Z 23001KT 11/09 A3021 RMK A01 T01050090  RH  090%=      5-min Rain = 0
KES1 260939Z 27001KT 11/09 A3021 RMK A01 T01050090  RH  090%=      5-min Rain = 0
KES1 260940Z 26001KT 11/09 A3021 RMK A01 T01050089  RH  090%=      5-min Rain = 0
KES1 260941Z 24000KT 11/09 A3021 RMK A01 T01050091  RH  091%=      5-min Rain = 0
KES1 260942Z 24000KT 11/09 A3021 RMK A01 T01060092  RH  091%=      5-min Rain = 0
KES1 260943Z 00000KT 11/09 A3021 RMK A01 T01050091  RH  091%=      5-min Rain = 0
KES1 260944Z 00000KT 10/09 A3021 RMK A01 T01040090  RH  091%=      5-min Rain = 0
KES1 260945Z 00000KT 10/09 A3021 RMK A01 T01040090  RH  091%=      5-min Rain = 0
KES1 260946Z 00000KT 10/09 A3021 RMK A01 T01040090  RH  091%=      5-min Rain = 0
KES1 260947Z 00000KT 10/09 A3021 RMK A01 T01030089  RH  091%=      5-min Rain = 0
KES1 260948Z 25000KT 10/09 A3021 RMK A01 T01020090  RH  092%=      5-min Rain = 0
KES1 260949Z 25000KT 10/09 A3021 RMK A01 T01030092  RH  092%=      5-min Rain = 0
KES1 260950Z 00000KT 10/09 A3021 RMK A01 T01040092  RH  092%=      5-min Rain = 0
KES1 260951Z 25000KT 11/09 A3021 RMK A01 T01050093  RH  092%=      5-min Rain = 0
KES1 260952Z 25001KT 11/09 A3021 RMK A01 T01080094  RH  091%=      5-min Rain = 0
KES1 260953Z 25000KT 11/09 A3021 RMK A01 T01100094  RH  090%=      5-min Rain = 0
KES1 260954Z 25001KT 11/09 A3021 RMK A01 T01120093  RH  088%=      5-min Rain = 0
KES1 260955Z 24002KT 11/09 A3021 RMK A01 T01130093  RH  088%=      5-min Rain = 0
KES1 260956Z 23002KT 11/09 A3021 RMK A01 T01120093  RH  088%=      5-min Rain = 0
KES1 260957Z 23003KT 11/09 A3021 RMK A01 T01120093  RH  088%=      5-min Rain = 0
KES1 260958Z 24002KT 11/09 A3021 RMK A01 T01120093  RH  088%=      5-min Rain = 0
KES1 260959Z 24002KT 11/09 A3021 RMK A01 T01130094  RH  088%=      5-min Rain = 0
KES1 261000Z 24002KT 11/09 A3021 RMK A01 T01130094  RH  088%=      5-min Rain = 0
KES1 261001Z 24001KT 11/09 A3021 RMK A01 T01140094  RH  087%=      5-min Rain = 0
KES1 261002Z 25001KT 11/09 A3021 RMK A01 T01140094  RH  087%=      5-min Rain = 0
KES1 261003Z 25001KT 11/09 A3021 RMK A01 T01140093  RH  087%=      5-min Rain = 0
KES1 261004Z 25001KT 11/09 A3021 RMK A01 T01130093  RH  088%=      5-min Rain = 0
KES1 261005Z 25001KT 11/09 A3021 RMK A01 T01130093  RH  088%=      5-min Rain = 0
KES1 261006Z 25000KT 11/09 A3021 RMK A01 T01120092  RH  088%=      5-min Rain = 0
KES1 261007Z 00000KT 11/09 A3021 RMK A01 T01110092  RH  088%=      5-min Rain = 0
KES1 261008Z 00000KT 11/09 A3021 RMK A01 T01100093  RH  089%=      5-min Rain = 0
KES1 261009Z 00000KT 11/09 A3021 RMK A01 T01100093  RH  089%=      5-min Rain = 0
KES1 261010Z 00000KT 11/09 A3021 RMK A01 T01100093  RH  089%=      5-min Rain = 0
KES1 261011Z 00000KT 11/09 A3021 RMK A01 T01110094  RH  089%=      5-min Rain = 0
KES1 261012Z 35000KT 11/09 A3021 RMK A01 T01110094  RH  089%=      5-min Rain = 0
KES1 261013Z 06001KT 11/09 A3021 RMK A01 T01110093  RH  089%=      5-min Rain = 0
KES1 261014Z 07002KT 11/09 A302 RMK A01 T01110093  RH  089%=      5-min Rain = 0
KES1 261015Z 09002KT 11/09 A302 RMK A01 T01090093  RH  089%=      5-min Rain = 0
KES1 261016Z 10002KT 11/09 A302 RMK A01 T01090093  RH  090%=      5-min Rain = 0
KES1 261017Z 10003KT 11/09 A302 RMK A01 T01080093  RH  091%=      5-min Rain = 0
KES1 261018Z 08003KT 11/09 A302 RMK A01 T01070093  RH  091%=      5-min Rain = 0
KES1 261019Z 08003KT 11/09 A302 RMK A01 T01070093  RH  091%=      5-min Rain = 0
KES1 261020Z 09003KT 11/09 A302 RMK A01 T01070093  RH  091%=      5-min Rain = 0
KES1 261021Z 09004KT 11/09 A302 RMK A01 T01080094  RH  091%=      5-min Rain = 0
KES1 261022Z 09004KT 11/09 A302 RMK A01 T01080094  RH  091%=      5-min Rain = 0
KES1 261023Z 09004KT 11/09 A3019 RMK A01 T01090094  RH  091%=      5-min Rain = 0
KES1 261024Z 09005KT 11/09 A3019 RMK A01 T01090094  RH  090%=      5-min Rain = 0
KES1 261025Z 09005KT 11/09 A3019 RMK A01 T01090094  RH  090%=      5-min Rain = 0
KES1 261026Z 09005KT 11/09 A3019 RMK A01 T01090094  RH  091%=      5-min Rain = 0
KES1 261027Z 09005KT 11/10 A3019 RMK A01 T01080095  RH  091%=      5-min Rain = 0
KES1 261028Z 08005KT 11/10 A3019 RMK A01 T01080095  RH  092%=      5-min Rain = 0
KES1 261029Z 09005KT 11/10 A302 RMK A01 T01080095  RH  092%=      5-min Rain = 0
KES1 261030Z 09005KT 11/10 A302 RMK A01 T01100096  RH  092%=      5-min Rain = 0
KES1 261031Z 09005KT 11/10 A302 RMK A01 T01110097  RH  091%=      5-min Rain = 0
KES1 261032Z 09004KT 11/10 A302 RMK A01 T01130097  RH  090%=      5-min Rain = 0
KES1 261033Z 09004KT 11/10 A302 RMK A01 T01140097  RH  089%=      5-min Rain = 0
KES1 261034Z 09004KT 12/10 A302 RMK A01 T01150096  RH  088%=      5-min Rain = 0
KES1 261035Z 09004KT 12/10 A302 RMK A01 T01170096  RH  087%=      5-min Rain = 0
KES1 261036Z 09003KT 12/10 A302 RMK A01 T01180096  RH  086%=      5-min Rain = 0
KES1 261037Z 09004KT 12/10 A302 RMK A01 T01200095  RH  085%=      5-min Rain = 0
KES1 261038Z 09004KT 12/10 A302 RMK A01 T01210095  RH  084%=      5-min Rain = 0
KES1 261039Z 09004KT 12/10 A302 RMK A01 T01220095  RH  084%=      5-min Rain = 0
KES1 261040Z 09003KT 12/10 A302 RMK A01 T01220095  RH  083%=      5-min Rain = 0
KES1 261041Z 10003KT 12/10 A302 RMK A01 T01230095  RH  083%=      5-min Rain = 0
KES1 261042Z 10004KT 12/10 A302 RMK A01 T01230096  RH  083%=      5-min Rain = 0
KES1 261043Z 10003KT 12/10 A302 RMK A01 T01230096  RH  084%=      5-min Rain = 0
KES1 261044Z 11002KT 12/10 A302 RMK A01 T01230096  RH  084%=      5-min Rain = 0
KES1 261045Z 12000KT 12/10 A302 RMK A01 T01230097  RH  084%=      5-min Rain = 0
KES1 261046Z 25002KT 12/10 A302 RMK A01 T01220098  RH  085%=      5-min Rain = 0
KES1 261047Z 26002KT 12/10 A3021 RMK A01 T01200098  RH  086%=      5-min Rain = 0
KES1 261048Z 27003KT 12/10 A3021 RMK A01 T01180096  RH  087%=      5-min Rain = 0
KES1 261049Z 26005KT 11/09 A3021 RMK A01 T01140092  RH  087%=      5-min Rain = 0
KES1 261050Z 27004KT 11/09 A3021 RMK A01 T01090090  RH  088%=      5-min Rain = 0
KES1 261051Z 26004KT 11/09 A3021 RMK A01 T01060089  RH  089%=      5-min Rain = 0
KES1 261052Z 26004KT 10/09 A3021 RMK A01 T01040088  RH  090%=      5-min Rain = 0
KES1 261053Z 25004KT 10/09 A3021 RMK A01 T01020089  RH  091%=      5-min Rain = 0
KES1 261054Z 25004KT 10/09 A3021 RMK A01 T01020090  RH  092%=      5-min Rain = 0
KES1 261055Z 24004KT 10/09 A3021 RMK A01 T01010090  RH  092%=      5-min Rain = 0
KES1 261056Z 24003KT 10/09 A3021 RMK A01 T01010090  RH  093%=      5-min Rain = 0
KES1 261057Z 23004KT 10/09 A3021 RMK A01 T01000090  RH  093%=      5-min Rain = 0
KES1 261058Z 23004KT 10/09 A3021 RMK A01 T01000090  RH  094%=      5-min Rain = 0
KES1 261059Z 22004KT 10/09 A3021 RMK A01 T01010091  RH  094%=      5-min Rain = 0
KES1 261100Z 22004KT 10/09 A3021 RMK A01 T01010092  RH  094%=      5-min Rain = 0
KES1 261101Z 21004KT 10/09 A3021 RMK A01 T01030094  RH  094%=      5-min Rain = 0
KES1 261102Z 21004KT 10/10 A3021 RMK A01 T01040095  RH  094%=      5-min Rain = 0
KES1 261103Z 20004KT 11/10 A3021 RMK A01 T01050096  RH  094%=      5-min Rain = 0
KES1 261104Z 20004KT 11/10 A3021 RMK A01 T01070097  RH  094%=      5-min Rain = 0
KES1 261105Z 20004KT 11/10 A3021 RMK A01 T01080096  RH  093%=      5-min Rain = 0
KES1 261106Z 21004KT 11/10 A3021 RMK A01 T01090096  RH  092%=      5-min Rain = 0
KES1 261107Z 20004KT 11/10 A3021 RMK A01 T01090096  RH  091%=      5-min Rain = 0
KES1 261108Z 21004KT 11/10 A3021 RMK A01 T01100096  RH  091%=      5-min Rain = 0
KES1 261109Z 22005KT 11/10 A3021 RMK A01 T01100096  RH  091%=      5-min Rain = 0
KES1 261110Z 22004KT 11/10 A3021 RMK A01 T01100095  RH  091%=      5-min Rain = 0
KES1 261111Z 23004KT 11/10 A3022 RMK A01 T01100095  RH  091%=      5-min Rain = 0
KES1 261112Z 24003KT 11/10 A3022 RMK A01 T01100096  RH  091%=      5-min Rain = 0
KES1 261113Z 23003KT 11/10 A3022 RMK A01 T01100095  RH  091%=      5-min Rain = 0
KES1 261114Z 24003KT 11/10 A3022 RMK A01 T01100095  RH  091%=      5-min Rain = 0
KES1 261115Z 24003KT 11/10 A3022 RMK A01 T01100095  RH  091%=      5-min Rain = 0
KES1 261116Z 24003KT 11/10 A3022 RMK A01 T01100095  RH  091%=      5-min Rain = 0
KES1 261117Z 24003KT 11/10 A3022 RMK A01 T01100095  RH  091%=      5-min Rain = 0
KES1 261118Z 24003KT 11/10 A3022 RMK A01 T01090095  RH  091%=      5-min Rain = 0
KES1 261119Z 24004KT 11/10 A3022 RMK A01 T01090095  RH  091%=      5-min Rain = 0
KES1 261120Z 24003KT 11/09 A3022 RMK A01 T01090094  RH  091%=      5-min Rain = 0
KES1 261121Z 25002KT 11/09 A3022 RMK A01 T01090094  RH  091%=      5-min Rain = 0
KES1 261122Z 24002KT 11/09 A3022 RMK A01 T01090094  RH  091%=      5-min Rain = 0
KES1 261123Z 24002KT 11/10 A3022 RMK A01 T01090095  RH  091%=      5-min Rain = 0
KES1 261124Z 23002KT 11/10 A3022 RMK A01 T01090095  RH  091%=      5-min Rain = 0
KES1 261125Z 23002KT 11/09 A3022 RMK A01 T01090094  RH  091%=      5-min Rain = 0
KES1 261126Z 24003KT 11/09 A3023 RMK A01 T01080094  RH  091%=      5-min Rain = 0
KES1 261127Z 24003KT 11/10 A3023 RMK A01 T01080095  RH  091%=      5-min Rain = 0
KES1 261128Z 24003KT 11/10 A3023 RMK A01 T01080096  RH  092%=      5-min Rain = 0
KES1 261129Z 24003KT 11/10 A3023 RMK A01 T01080095  RH  092%=      5-min Rain = 0
KES1 261130Z 24003KT 11/10 A3022 RMK A01 T01070095  RH  092%=      5-min Rain = 0
KES1 261131Z 23002KT 11/10 A3022 RMK A01 T01070095  RH  093%=      5-min Rain = 0
KES1 261132Z 22002KT 11/10 A3022 RMK A01 T01070096  RH  093%=      5-min Rain = 0
KES1 261133Z 23003KT 11/10 A3022 RMK A01 T01070096  RH  093%=      5-min Rain = 0
KES1 261134Z 23003KT 11/10 A3022 RMK A01 T01070096  RH  093%=      5-min Rain = 0
KES1 261135Z 22003KT 11/10 A3022 RMK A01 T01060096  RH  093%=      5-min Rain = 0
KES1 261136Z 22004KT 11/10 A3022 RMK A01 T01060096  RH  093%=      5-min Rain = 0
KES1 261137Z 21003KT 11/10 A3022 RMK A01 T01070096  RH  093%=      5-min Rain = 0
KES1 261138Z 20003KT 11/10 A3022 RMK A01 T01070096  RH  093%=      5-min Rain = 0
KES1 261139Z 20004KT 11/10 A3021 RMK A01 T01080096  RH  092%=      5-min Rain = 0
KES1 261140Z 20004KT 11/10 A3021 RMK A01 T01090096  RH  092%=      5-min Rain = 0
KES1 261141Z 19004KT 11/10 A3021 RMK A01 T01090096  RH  092%=      5-min Rain = 0
KES1 261142Z 19003KT 11/10 A3021 RMK A01 T01100097  RH  091%=      5-min Rain = 0
KES1 261143Z 19003KT 11/10 A3021 RMK A01 T01110097  RH  091%=      5-min Rain = 0
KES1 261144Z 19003KT 11/10 A3021 RMK A01 T01100097  RH  091%=      5-min Rain = 0
KES1 261145Z 19003KT 11/10 A3021 RMK A01 T01110097  RH  091%=      5-min Rain = 0
KES1 261146Z 18003KT 11/10 A3021 RMK A01 T01110097  RH  091%=      5-min Rain = 0
KES1 261147Z 19003KT 11/10 A3021 RMK A01 T01120097  RH  091%=      5-min Rain = 0
KES1 261148Z 18003KT 11/10 A3021 RMK A01 T01120097  RH  090%=      5-min Rain = 0
KES1 261149Z 18004KT 11/10 A3021 RMK A01 T01120097  RH  090%=      5-min Rain = 0
KES1 261150Z 18004KT 11/10 A3021 RMK A01 T01120097  RH  090%=      5-min Rain = 0
KES1 261151Z 18004KT 11/10 A3021 RMK A01 T01120097  RH  090%=      5-min Rain = 0
KES1 261152Z 17004KT 11/10 A3021 RMK A01 T01130097  RH  090%=      5-min Rain = 0
KES1 261153Z 17003KT 11/10 A3021 RMK A01 T01130097  RH  090%=      5-min Rain = 0
KES1 261154Z 16003KT 11/10 A3021 RMK A01 T01130098  RH  090%=      5-min Rain = 0
KES1 261155Z 15003KT 11/10 A302 RMK A01 T01140098  RH  090%=      5-min Rain = 0
KES1 261156Z 15004KT 11/10 A302 RMK A01 T01140098  RH  090%=      5-min Rain = 0
KES1 261157Z 15006KT 11/10 A302 RMK A01 T01140099  RH  090%=      5-min Rain = 0
KES1 261158Z 15008KT 11/10 A302 RMK A01 T01140099  RH  091%=      5-min Rain = 0
KES1 261159Z 15010KT 12/10 A3019 RMK A01 T01150100  RH  090%=      5-min Rain = 0
KES1 261200Z 15011KT 12/10 A3019 RMK A01 T01160100  RH  090%=      5-min Rain = 0
KES1 261201Z 15011KT 12/10 A3018 RMK A01 T01180099  RH  088%=      5-min Rain = 0
KES1 261202Z 15010KT 12/10 A3018 RMK A01 T01190099  RH  087%=      5-min Rain = 0
KES1 261203Z 15011KT 12/10 A3018 RMK A01 T01210098  RH  086%=      5-min Rain = 0
KES1 261204Z 16010KT 12/10 A3018 RMK A01 T01220098  RH  085%=      5-min Rain = 0
KES1 261205Z 16009KT 12/10 A3018 RMK A01 T01230098  RH  085%=      5-min Rain = 0
KES1 261206Z 16009KT 12/10 A3019 RMK A01 T01240097  RH  084%=      5-min Rain = 0
KES1 261207Z 16009KT 12/10 A3019 RMK A01 T01240097  RH  083%=      5-min Rain = 0
KES1 261208Z 15008KT 12/10 A3019 RMK A01 T01240096  RH  083%=      5-min Rain = 0
KES1 261209Z 15008KT 13/10 A3019 RMK A01 T01250096  RH  083%=      5-min Rain = 0
KES1 261210Z 15007KT 13/10 A3019 RMK A01 T01250097  RH  083%=      5-min Rain = 0
KES1 261211Z 15007KT 12/10 A3019 RMK A01 T01240097  RH  083%=      5-min Rain = 0
KES1 261212Z 15008KT 12/10 A3019 RMK A01 T01230097  RH  084%=      5-min Rain = 0
KES1 261213Z 15008KT 12/10 A3019 RMK A01 T01210096  RH  085%=      5-min Rain = 0
KES1 261214Z 15007KT 12/10 A302 RMK A01 T01210096  RH  085%=      5-min Rain = 0
KES1 261215Z 15006KT 12/10 A302 RMK A01 T01200096  RH  085%=      5-min Rain = 0
KES1 261216Z 15005KT 12/10 A302 RMK A01 T01190096  RH  086%=      5-min Rain = 0
KES1 261217Z 15005KT 12/10 A302 RMK A01 T01190096  RH  086%=      5-min Rain = 0
KES1 261218Z 15005KT 12/10 A302 RMK A01 T01190095  RH  086%=      5-min Rain = 0
KES1 261219Z 15005KT 12/10 A302 RMK A01 T01180095  RH  086%=      5-min Rain = 0
KES1 261220Z 14006KT 12/10 A302 RMK A01 T01170095  RH  086%=      5-min Rain = 0
KES1 261221Z 14006KT 12/10 A302 RMK A01 T01170095  RH  087%=      5-min Rain = 0
KES1 261222Z 14006KT 12/10 A302 RMK A01 T01160095  RH  087%=      5-min Rain = 0
KES1 261223Z 14006KT 12/10 A302 RMK A01 T01160095  RH  087%=      5-min Rain = 0
KES1 261224Z 14006KT 12/10 A302 RMK A01 T01150095  RH  087%=      5-min Rain = 0
KES1 261225Z 14006KT 12/10 A302 RMK A01 T01150095  RH  088%=      5-min Rain = 0
KES1 261226Z 14006KT 12/10 A302 RMK A01 T01150095  RH  088%=      5-min Rain = 0
KES1 261227Z 14006KT 11/10 A302 RMK A01 T01140095  RH  088%=      5-min Rain = 0
KES1 261228Z 14006KT 12/10 A302 RMK A01 T01150096  RH  088%=      5-min Rain = 0
KES1 261229Z 13007KT 12/10 A302 RMK A01 T01150096  RH  088%=      5-min Rain = 0
KES1 261230Z 13008KT 12/10 A302 RMK A01 T01160096  RH  087%=      5-min Rain = 0
KES1 261231Z 13008KT 12/10 A302 RMK A01 T01190096  RH  086%=      5-min Rain = 0
KES1 261232Z 13007KT 12/10 A302 RMK A01 T01210097  RH  085%=      5-min Rain = 0
KES1 261233Z 13007KT 12/10 A302 RMK A01 T01220097  RH  085%=      5-min Rain = 0
KES1 261234Z 13006KT 12/10 A302 RMK A01 T01230098  RH  085%=      5-min Rain = 0
KES1 261235Z 13005KT 12/10 A302 RMK A01 T01230098  RH  085%=      5-min Rain = 0
KES1 261236Z 12005KT 12/10 A302 RMK A01 T01230098  RH  085%=      5-min Rain = 0
KES1 261237Z 12005KT 12/10 A3021 RMK A01 T01240099  RH  084%=      5-min Rain = 0
KES1 261238Z 13004KT 13/10 A3021 RMK A01 T01260099  RH  084%=      5-min Rain = 0
KES1 261239Z 13004KT 13/10 A3021 RMK A01 T01270099  RH  083%=      5-min Rain = 0
KES1 261240Z 12004KT 13/10 A3021 RMK A01 T01290101  RH  083%=      5-min Rain = 0
KES1 261241Z 12004KT 13/10 A3021 RMK A01 T01310101  RH  082%=      5-min Rain = 0
KES1 261242Z 13004KT 13/10 A3021 RMK A01 T01330102  RH  082%=      5-min Rain = 0
KES1 261243Z 13003KT 13/10 A3021 RMK A01 T01340103  RH  082%=      5-min Rain = 0
KES1 261244Z 13003KT 14/10 A3021 RMK A01 T01350102  RH  080%=      5-min Rain = 0
KES1 261245Z 15002KT 14/10 A3021 RMK A01 T01360104  RH  081%=      5-min Rain = 0
KES1 261246Z 15003KT 14/10 A3022 RMK A01 T01370104  RH  080%=      5-min Rain = 0
KES1 261247Z 16004KT 14/10 A3022 RMK A01 T01390101  RH  078%=      5-min Rain = 0
KES1 261248Z 16004KT 14/10 A3022 RMK A01 T01410103  RH  078%=      5-min Rain = 0
KES1 261249Z 15004KT 14/10 A3022 RMK A01 T01410103  RH  078%=      5-min Rain = 0
KES1 261250Z 15003KT 14/11 A3022 RMK A01 T01420105  RH  078%=      5-min Rain = 0
KES1 261251Z 15004KT 14/11 A3022 RMK A01 T01440107  RH  078%=      5-min Rain = 0
KES1 261252Z 15004KT 15/11 A3022 RMK A01 T01450106  RH  078%=      5-min Rain = 0
KES1 261253Z 15004KT 15/11 A3022 RMK A01 T01450106  RH  077%=      5-min Rain = 0
KES1 261254Z 16003KT 15/11 A3022 RMK A01 T01450105  RH  077%=      5-min Rain = 0
KES1 261255Z 17002KT 15/11 A3022 RMK A01 T01450107  RH  078%=      5-min Rain = 0
KES1 261256Z 20002KT 15/11 A3022 RMK A01 T01450108  RH  078%=      5-min Rain = 0
KES1 261257Z 20003KT 15/11 A3023 RMK A01 T01450107  RH  078%=      5-min Rain = 0
KES1 261258Z 21003KT 15/11 A3023 RMK A01 T01450105  RH  077%=      5-min Rain = 0
KES1 261259Z 26003KT 15/11 A3023 RMK A01 T01450106  RH  077%=      5-min Rain = 0
KES1 261300Z 28003KT 14/11 A3023 RMK A01 T01440108  RH  079%=      5-min Rain = 0
KES1 261301Z 29003KT 14/11 A3023 RMK A01 T01420109  RH  080%=      5-min Rain = 0
KES1 261302Z 28004KT 14/11 A3024 RMK A01 T01390109  RH  082%=      5-min Rain = 0
KES1 261303Z 26004KT 14/11 A3024 RMK A01 T01360109  RH  084%=      5-min Rain = 0
KES1 261304Z 26005KT 13/11 A3024 RMK A01 T01340108  RH  084%=      5-min Rain = 0
KES1 261305Z 26005KT 13/11 A3024 RMK A01 T01320107  RH  085%=      5-min Rain = 0
KES1 261306Z 25006KT 13/11 A3024 RMK A01 T01310107  RH  085%=      5-min Rain = 0
KES1 261307Z 25005KT 13/11 A3024 RMK A01 T01290106  RH  086%=      5-min Rain = 0
KES1 261308Z 26005KT 13/11 A3024 RMK A01 T01290107  RH  086%=      5-min Rain = 0
KES1 261309Z 25005KT 13/11 A3024 RMK A01 T01290106  RH  086%=      5-min Rain = 0
KES1 261310Z 26005KT 13/11 A3024 RMK A01 T01290107  RH  087%=      5-min Rain = 0
KES1 261311Z 25005KT 13/11 A3024 RMK A01 T01280107  RH  087%=      5-min Rain = 0
KES1 261312Z 25004KT 13/11 A3024 RMK A01 T01280106  RH  086%=      5-min Rain = 0
KES1 261313Z 24003KT 13/11 A3024 RMK A01 T01280106  RH  086%=      5-min Rain = 0
KES1 261314Z 24004KT 13/11 A3024 RMK A01 T01280105  RH  085%=      5-min Rain = 0
KES1 261315Z 25004KT 13/11 A3024 RMK A01 T01290105  RH  085%=      5-min Rain = 0
KES1 261316Z 24005KT 13/11 A3024 RMK A01 T01300105  RH  085%=      5-min Rain = 0
KES1 261317Z 24006KT 13/11 A3024 RMK A01 T01310108  RH  086%=      5-min Rain = 0
KES1 261318Z 23006KT 13/11 A3024 RMK A01 T01310107  RH  085%=      5-min Rain = 0
KES1 261319Z 23005KT 13/11 A3024 RMK A01 T01320107  RH  085%=      5-min Rain = 0
KES1 261320Z 20005KT 13/11 A3024 RMK A01 T01330108  RH  085%=      5-min Rain = 0
KES1 261321Z 20005KT 13/11 A3024 RMK A01 T01340109  RH  085%=      5-min Rain = 0
KES1 261322Z 21005KT 14/11 A3024 RMK A01 T01350109  RH  084%=      5-min Rain = 0
KES1 261323Z 22004KT 14/11 A3024 RMK A01 T01360111  RH  085%=      5-min Rain = 0
KES1 261324Z 21006KT 14/11 A3024 RMK A01 T01360108  RH  083%=      5-min Rain = 0
KES1 261325Z 21004KT 14/11 A3024 RMK A01 T01360107  RH  083%=      5-min Rain = 0
KES1 261326Z 22004KT 14/11 A3024 RMK A01 T01370111  RH  084%=      5-min Rain = 0
KES1 261327Z 22004KT 14/11 A3024 RMK A01 T01380111  RH  084%=      5-min Rain = 0
KES1 261328Z 22005KT 14/11 A3024 RMK A01 T01380110  RH  083%=      5-min Rain = 0
KES1 261329Z 22005KT 14/11 A3024 RMK A01 T01400111  RH  083%=      5-min Rain = 0
KES1 261330Z 23005KT 14/11 A3025 RMK A01 T01400111  RH  083%=      5-min Rain = 0
KES1 261331Z 24005KT 14/11 A3025 RMK A01 T01410111  RH  082%=      5-min Rain = 0
KES1 261332Z 24005KT 14/11 A3025 RMK A01 T01420110  RH  081%=      5-min Rain = 0
KES1 261333Z 25004KT 14/11 A3025 RMK A01 T01430110  RH  080%=      5-min Rain = 0
KES1 261334Z 25004KT 14/11 A3026 RMK A01 T01440111  RH  080%=      5-min Rain = 0
KES1 261335Z 26004KT 15/11 A3026 RMK A01 T01450113  RH  081%=      5-min Rain = 0
KES1 261336Z 27005KT 15/11 A3026 RMK A01 T01460114  RH  081%=      5-min Rain = 0
KES1 261337Z 27005KT 15/11 A3026 RMK A01 T01460113  RH  081%=      5-min Rain = 0
KES1 261338Z 27005KT 15/11 A3026 RMK A01 T01460111  RH  079%=      5-min Rain = 0
KES1 261339Z 28005KT 15/11 A3026 RMK A01 T01460112  RH  080%=      5-min Rain = 0
KES1 261340Z 27004KT 15/11 A3026 RMK A01 T01460114  RH  081%=      5-min Rain = 0
KES1 261341Z 28004KT 15/12 A3026 RMK A01 T01460115  RH  082%=      5-min Rain = 0
KES1 261342Z 28005KT 15/11 A3027 RMK A01 T01460113  RH  080%=      5-min Rain = 0
KES1 261343Z 27004KT 15/11 A3027 RMK A01 T01460112  RH  080%=      5-min Rain = 0
KES1 261344Z 27003KT 15/11 A3027 RMK A01 T01470114  RH  081%=      5-min Rain = 0
KES1 261345Z 27003KT 15/12 A3027 RMK A01 T01470115  RH  081%=      5-min Rain = 0
KES1 261346Z 27003KT 15/11 A3027 RMK A01 T01470114  RH  080%=      5-min Rain = 0
KES1 261347Z 26004KT 15/12 A3027 RMK A01 T01480115  RH  081%=      5-min Rain = 0
KES1 261348Z 25003KT 15/11 A3027 RMK A01 T01490112  RH  078%=      5-min Rain = 0
KES1 261349Z 25004KT 15/11 A3027 RMK A01 T01500110  RH  077%=      5-min Rain = 0
KES1 261350Z 26003KT 15/11 A3027 RMK A01 T01500106  RH  075%=      5-min Rain = 0
KES1 261351Z 26003KT 15/11 A3027 RMK A01 T01510109  RH  076%=      5-min Rain = 0
KES1 261352Z 27004KT 15/11 A3027 RMK A01 T01520111  RH  076%=      5-min Rain = 0
KES1 261353Z 26005KT 15/11 A3026 RMK A01 T01530109  RH  075%=      5-min Rain = 0
KES1 261354Z 26004KT 15/11 A3026 RMK A01 T01540110  RH  075%=      5-min Rain = 0
KES1 261355Z 27003KT 16/11 A3026 RMK A01 T01550112  RH  075%=      5-min Rain = 0
KES1 261356Z 26005KT 16/11 A3026 RMK A01 T01560110  RH  074%=      5-min Rain = 0
KES1 261357Z 26005KT 16/11 A3026 RMK A01 T01570112  RH  074%=      5-min Rain = 0
KES1 261358Z 26004KT 16/11 A3026 RMK A01 T01580114  RH  075%=      5-min Rain = 0
KES1 261359Z 24005KT 16/11 A3026 RMK A01 T01600114  RH  074%=      5-min Rain = 0
KES1 261400Z 24005KT 16/11 A3026 RMK A01 T01610109  RH  071%=      5-min Rain = 0
KES1 261401Z 23005KT 16/11 A3026 RMK A01 T01620111  RH  071%=      5-min Rain = 0
KES1 261402Z 23005KT 16/11 A3026 RMK A01 T01620109  RH  071%=      5-min Rain = 0
KES1 261403Z 21003KT 16/11 A3026 RMK A01 T01620107  RH  070%=      5-min Rain = 0
KES1 261404Z 24004KT 16/11 A3026 RMK A01 T01620108  RH  070%=      5-min Rain = 0
KES1 261405Z 24005KT 16/11 A3026 RMK A01 T01620113  RH  073%=      5-min Rain = 0
KES1 261406Z 23003KT 16/11 A3026 RMK A01 T01620113  RH  072%=      5-min Rain = 0
KES1 261407Z 25005KT 16/11 A3026 RMK A01 T01630113  RH  072%=      5-min Rain = 0
KES1 261408Z 23004KT 16/11 A3026 RMK A01 T01630111  RH  071%=      5-min Rain = 0
KES1 261409Z 23005KT 16/11 A3026 RMK A01 T01630111  RH  071%=      5-min Rain = 0
KES1 261410Z 24006KT 16/11 A3026 RMK A01 T01630110  RH  071%=      5-min Rain = 0
KES1 261411Z 23005KT 16/11 A3026 RMK A01 T01620109  RH  071%=      5-min Rain = 0
KES1 261412Z 24006KT 16/11 A3026 RMK A01 T01610107  RH  071%=      5-min Rain = 0
KES1 261413Z 25006KT 16/11 A3027 RMK A01 T01600109  RH  072%=      5-min Rain = 0
KES1 261414Z 24006KT 16/11 A3027 RMK A01 T01590110  RH  073%=      5-min Rain = 0
KES1 261415Z 23005KT 16/11 A3027 RMK A01 T01590110  RH  073%=      5-min Rain = 0
KES1 261416Z 24006KT 16/11 A3027 RMK A01 T01590110  RH  073%=      5-min Rain = 0
KES1 261417Z 23006KT 16/11 A3027 RMK A01 T01590109  RH  072%=      5-min Rain = 0
KES1 261418Z 23006KT 16/11 A3027 RMK A01 T01590109  RH  072%=      5-min Rain = 0
KES1 261419Z 23005KT 16/11 A3027 RMK A01 T01590110  RH  073%=      5-min Rain = 0
KES1 261420Z 24005KT 16/11 A3027 RMK A01 T01590110  RH  073%=      5-min Rain = 0
KES1 261421Z 23004KT 16/11 A3027 RMK A01 T01590112  RH  074%=      5-min Rain = 0
KES1 261422Z 24005KT 16/11 A3027 RMK A01 T01600113  RH  074%=      5-min Rain = 0
KES1 261423Z 24005KT 16/11 A3027 RMK A01 T01610112  RH  073%=      5-min Rain = 0
KES1 261424Z 23006KT 16/11 A3027 RMK A01 T01610113  RH  073%=      5-min Rain = 0
KES1 261425Z 23005KT 16/11 A3026 RMK A01 T01620114  RH  073%=      5-min Rain = 0
KES1 261426Z 22006KT 16/12 A3026 RMK A01 T01630115  RH  073%=      5-min Rain = 0
KES1 261427Z 22005KT 17/11 A3026 RMK A01 T01650113  RH  071%=      5-min Rain = 0
KES1 261428Z 22006KT 17/11 A3026 RMK A01 T01650113  RH  072%=      5-min Rain = 0
KES1 261429Z 20005KT 17/11 A3026 RMK A01 T01650111  RH  070%=      5-min Rain = 0
KES1 261430Z 20006KT 17/11 A3026 RMK A01 T01650110  RH  070%=      5-min Rain = 0
KES1 261431Z 19008KT 17/11 A3026 RMK A01 T01670110  RH  069%=      5-min Rain = 0
KES1 261432Z 20008KT 17/11 A3026 RMK A01 T01670105  RH  067%=      5-min Rain = 0
KES1 261433Z 21007KT 17/11 A3026 RMK A01 T01660105  RH  067%=      5-min Rain = 0
KES1 261434Z 21008KT 17/11 A3026 RMK A01 T01660105  RH  067%=      5-min Rain = 0
KES1 261435Z 21006KT 17/11 A3026 RMK A01 T01670106  RH  068%=      5-min Rain = 0
KES1 261436Z 22006KT 17/11 A3026 RMK A01 T01660108  RH  068%=      5-min Rain = 0
KES1 261437Z 22006KT 17/11 A3026 RMK A01 T01660107  RH  068%=      5-min Rain = 0
KES1 261438Z 21005KT 17/11 A3026 RMK A01 T01660107  RH  068%=      5-min Rain = 0
KES1 261439Z 21005KT 17/11 A3026 RMK A01 T01660108  RH  068%=      5-min Rain = 0
KES1 261440Z 21006KT 17/11 A3026 RMK A01 T01670109  RH  068%=      5-min Rain = 0
KES1 261441Z 21007KT 17/11 A3026 RMK A01 T01680108  RH  067%=      5-min Rain = 0
KES1 261442Z 22006KT 17/11 A3026 RMK A01 T01700109  RH  067%=      5-min Rain = 0
KES1 261443Z 19008KT 17/11 A3026 RMK A01 T01720111  RH  067%=      5-min Rain = 0
KES1 261444Z 18007KT 17/11 A3026 RMK A01 T01730105  RH  064%=      5-min Rain = 0
KES1 261445Z 20006KT 17/11 A3026 RMK A01 T01740106  RH  064%=      5-min Rain = 0
KES1 261446Z 19007KT 17/11 A3026 RMK A01 T01730108  RH  065%=      5-min Rain = 0
KES1 261447Z 19009KT 17/11 A3026 RMK A01 T01740105  RH  064%=      5-min Rain = 0
KES1 261448Z 18008KT 17/10 A3026 RMK A01 T01740099  RH  061%=      5-min Rain = 0
KES1 261449Z 18009KT 17/10 A3025 RMK A01 T01730096  RH  061%=      5-min Rain = 0
KES1 261450Z 18008KT 17/09 A3025 RMK A01 T01720092  RH  059%=      5-min Rain = 0
KES1 261451Z 18007KT 17/09 A3025 RMK A01 T01720094  RH  060%=      5-min Rain = 0
KES1 261452Z 19008KT 17/10 A3025 RMK A01 T01710096  RH  061%=      5-min Rain = 0
KES1 261453Z 18009KT 17/09 A3025 RMK A01 T01700094  RH  061%=      5-min Rain = 0
KES1 261454Z 18008KT 17/09 A3025 RMK A01 T01700092  RH  060%=      5-min Rain = 0
KES1 261455Z 18007KT 17/09 A3025 RMK A01 T01700093  RH  060%=      5-min Rain = 0
KES1 261456Z 18007KT 17/10 A3025 RMK A01 T01700095  RH  061%=      5-min Rain = 0
KES1 261457Z 16006KT 17/09 A3024 RMK A01 T01710094  RH  061%=      5-min Rain = 0
KES1 261458Z 16007KT 17/10 A3024 RMK A01 T01720097  RH  061%=      5-min Rain = 0
KES1 261459Z 16007KT 17/10 A3024 RMK A01 T01730095  RH  060%=      5-min Rain = 0
KES1 261500Z 17008KT 17/10 A3024 RMK A01 T01740097  RH  060%=      5-min Rain = 0
KES1 261501Z 17010KT 17/09 A3024 RMK A01 T01740093  RH  059%=      5-min Rain = 0
KES1 261502Z 18011KT 17/09 A3024 RMK A01 T01740087  RH  056%=      5-min Rain = 0
KES1 261503Z 18009KT 17/09 A3024 RMK A01 T01740087  RH  057%=      5-min Rain = 0
KES1 261504Z 17007KT 17/09 A3024 RMK A01 T01730091  RH  059%=      5-min Rain = 0
KES1 261505Z 16006KT 17/09 A3024 RMK A01 T01730091  RH  059%=      5-min Rain = 0
KES1 261506Z 16007KT 17/09 A3024 RMK A01 T01730094  RH  060%=      5-min Rain = 0
KES1 261507Z 17007KT 17/09 A3024 RMK A01 T01730089  RH  058%=      5-min Rain = 0
KES1 261508Z 15007KT 17/09 A3024 RMK A01 T01740092  RH  059%=      5-min Rain = 0
KES1 261509Z 15007KT 17/10 A3024 RMK A01 T01740096  RH  060%=      5-min Rain = 0
KES1 261510Z 16008KT 17/09 A3024 RMK A01 T01740091  RH  058%=      5-min Rain = 0
KES1 261511Z 16007KT 17/09 A3024 RMK A01 T01740092  RH  058%=      5-min Rain = 0
KES1 261512Z 16008KT 18/09 A3024 RMK A01 T01750093  RH  059%=      5-min Rain = 0
KES1 261513Z 16007KT 18/09 A3024 RMK A01 T01760094  RH  059%=      5-min Rain = 0
KES1 261514Z 17011KT 18/10 A3024 RMK A01 T01790099  RH  059%=      5-min Rain = 0
KES1 261515Z 16012KT 18/09 A3024 RMK A01 T01810093  RH  056%=      5-min Rain = 0
KES1 261516Z 16012KT 18/09 A3024 RMK A01 T01810089  RH  055%=      5-min Rain = 0
KES1 261517Z 16012KT 18/09 A3024 RMK A01 T01810089  RH  055%=      5-min Rain = 0
KES1 261518Z 16008KT 18/09 A3024 RMK A01 T01810092  RH  056%=      5-min Rain = 0
KES1 261519Z 16010KT 18/10 A3024 RMK A01 T01830095  RH  056%=      5-min Rain = 0
KES1 261520Z 16011KT 18/09 A3024 RMK A01 T01830092  RH  055%=      5-min Rain = 0
KES1 261521Z 15013KT 18/09 A3023 RMK A01 T01840091  RH  055%=      5-min Rain = 0
KES1 261522Z 16009KT 18/09 A3023 RMK A01 T01830092  RH  055%=      5-min Rain = 0
KES1 261523Z 15008G13KT 18/10 A3023 RMK A01 T01840097  RH  057%=      5-min Rain = 0
KES1 261524Z 15009KT 19/09 A3023 RMK A01 T01860092  RH  054%=      5-min Rain = 0
KES1 261525Z 15009KT 19/10 A3023 RMK A01 T01860096  RH  056%=      5-min Rain = 0
KES1 261526Z 16009KT 19/09 A3023 RMK A01 T01870094  RH  055%=      5-min Rain = 0
KES1 261527Z 16010KT 19/10 A3023 RMK A01 T01880096  RH  055%=      5-min Rain = 0
KES1 261528Z 17011KT 19/09 A3023 RMK A01 T01890092  RH  053%=      5-min Rain = 0
KES1 261529Z 17012KT 19/09 A3023 RMK A01 T01890087  RH  052%=      5-min Rain = 0
KES1 261530Z 16012KT 19/08 A3023 RMK A01 T01880083  RH  050%=      5-min Rain = 0
KES1 261531Z 16010G15KT 19/09 A3023 RMK A01 T01880087  RH  052%=      5-min Rain = 0
KES1 261532Z 16011G16KT 19/09 A3023 RMK A01 T01880087  RH  052%=      5-min Rain = 0
KES1 261533Z 15012KT 19/09 A3023 RMK A01 T01890091  RH  053%=      5-min Rain = 0
KES1 261534Z 14012KT 19/09 A3023 RMK A01 T01900091  RH  053%=      5-min Rain = 0
KES1 261535Z 14014KT 19/09 A3023 RMK A01 T01910086  RH  051%=      5-min Rain = 0
KES1 261536Z 16010KT 19/09 A3023 RMK A01 T01910088  RH  051%=      5-min Rain = 0
KES1 261537Z 17013KT 19/09 A3023 RMK A01 T01920089  RH  051%=      5-min Rain = 0
KES1 261538Z 15013KT 19/09 A3023 RMK A01 T01920085  RH  050%=      5-min Rain = 0
KES1 261539Z 15012KT 19/09 A3023 RMK A01 T01920085  RH  050%=      5-min Rain = 0
KES1 261540Z 17010KT 19/09 A3023 RMK A01 T01910087  RH  051%=      5-min Rain = 0
KES1 261541Z 17011KT 19/09 A3023 RMK A01 T01910087  RH  051%=      5-min Rain = 0
KES1 261542Z 17009G14KT 19/09 A3023 RMK A01 T01910085  RH  050%=      5-min Rain = 0
KES1 261543Z 17012KT 19/09 A3023 RMK A01 T01910087  RH  051%=      5-min Rain = 0
KES1 261544Z 16015KT 19/08 A3023 RMK A01 T01930081  RH  048%=      5-min Rain = 0
KES1 261545Z 15013G18KT 19/08 A3023 RMK A01 T01920082  RH  049%=      5-min Rain = 0
KES1 261546Z 15015KT 19/08 A3022 RMK A01 T01920080  RH  048%=      5-min Rain = 0
KES1 261547Z 16011KT 19/09 A3023 RMK A01 T01920085  RH  050%=      5-min Rain = 0
KES1 261548Z 18014KT 19/08 A3022 RMK A01 T01920081  RH  049%=      5-min Rain = 0
KES1 261549Z 17013KT 19/08 A3022 RMK A01 T01900076  RH  048%=      5-min Rain = 0
KES1 261550Z 16011KT 19/08 A3022 RMK A01 T01890079  RH  049%=      5-min Rain = 0
KES1 261551Z 15012KT 19/08 A3022 RMK A01 T01890082  RH  050%=      5-min Rain = 0
KES1 261552Z 16015KT 19/08 A3022 RMK A01 T01910078  RH  048%=      5-min Rain = 0
KES1 261553Z 17014KT 19/08 A3023 RMK A01 T01910076  RH  047%=      5-min Rain = 0
KES1 261554Z 17012KT 19/08 A3023 RMK A01 T01910077  RH  048%=      5-min Rain = 0
KES1 261555Z 17014KT 19/07 A3023 RMK A01 T01930074  RH  046%=      5-min Rain = 0
KES1 261556Z 15009KT 19/08 A3023 RMK A01 T01940079  RH  047%=      5-min Rain = 0
KES1 261557Z 17009G16KT 20/09 A3023 RMK A01 T01960087  RH  049%=      5-min Rain = 0
KES1 261558Z 17011KT 20/08 A3023 RMK A01 T01990080  RH  046%=      5-min Rain = 0
KES1 261559Z 15013KT 20/08 A3023 RMK A01 T01990076  RH  045%=      5-min Rain = 0
KES1 261600Z 16016KT 20/07 A3022 RMK A01 T01990074  RH  044%=      5-min Rain = 0
KES1 261601Z 17013KT 20/08 A3023 RMK A01 T01990075  RH  045%=      5-min Rain = 0
KES1 261602Z 16016KT 20/07 A3022 RMK A01 T01980072  RH  044%=      5-min Rain = 0
KES1 261603Z 16016KT 20/07 A3022 RMK A01 T01980071  RH  044%=      5-min Rain = 0
KES1 261604Z 15013KT 20/07 A3022 RMK A01 T01970071  RH  044%=      5-min Rain = 0
KES1 261605Z 15012KT 20/08 A3022 RMK A01 T01950078  RH  047%=      5-min Rain = 0
KES1 261606Z 16012G17KT 19/08 A3022 RMK A01 T01940075  RH  046%=      5-min Rain = 0
KES1 261607Z 15010KT 19/08 A3022 RMK A01 T01940076  RH  046%=      5-min Rain = 0
KES1 261608Z 15013KT 20/08 A3022 RMK A01 T01950078  RH  047%=      5-min Rain = 0
KES1 261609Z 16012G17KT 20/08 A3022 RMK A01 T01970079  RH  046%=      5-min Rain = 0
KES1 261610Z 16015KT 20/07 A3022 RMK A01 T01980072  RH  044%=      5-min Rain = 0
KES1 261611Z 15013KT 20/07 A3022 RMK A01 T01990069  RH  043%=      5-min Rain = 0
KES1 261612Z 14011KT 20/08 A3022 RMK A01 T01990076  RH  045%=      5-min Rain = 0
KES1 261613Z 16013KT 20/08 A3022 RMK A01 T02000077  RH  045%=      5-min Rain = 0
KES1 261614Z 16012KT 20/07 A3022 RMK A01 T02010074  RH  044%=      5-min Rain = 0
KES1 261615Z 16012G17KT 20/08 A3022 RMK A01 T02010077  RH  045%=      5-min Rain = 0
KES1 261616Z 16011KT 20/08 A3022 RMK A01 T02020077  RH  044%=      5-min Rain = 0
KES1 261617Z 16009KT 20/08 A3022 RMK A01 T02020078  RH  045%=      5-min Rain = 0
KES1 261618Z 17012KT 20/08 A3023 RMK A01 T02030080  RH  045%=      5-min Rain = 0
KES1 261619Z 17009KT 20/08 A3023 RMK A01 T02040077  RH  044%=      5-min Rain = 0
KES1 261620Z 17011KT 21/08 A3023 RMK A01 T02050082  RH  045%=      5-min Rain = 0
KES1 261621Z 17013KT 21/08 A3023 RMK A01 T02060078  RH  044%=      5-min Rain = 0
KES1 261622Z 17012KT 21/07 A3023 RMK A01 T02060072  RH  042%=      5-min Rain = 0
KES1 261623Z 17013KT 20/07 A3023 RMK A01 T02040071  RH  042%=      5-min Rain = 0
KES1 261624Z 16017KT 20/07 A3023 RMK A01 T02040074  RH  043%=      5-min Rain = 0
KES1 261625Z 16014KT 20/07 A3023 RMK A01 T02040066  RH  041%=      5-min Rain = 0
KES1 261626Z 15012KT 20/07 A3023 RMK A01 T02030071  RH  042%=      5-min Rain = 0
KES1 261627Z 16012G17KT 20/07 A3023 RMK A01 T02030073  RH  043%=      5-min Rain = 0
KES1 261628Z 17014KT 20/07 A3022 RMK A01 T02030070  RH  042%=      5-min Rain = 0
KES1 261629Z 17015KT 20/07 A3022 RMK A01 T02010067  RH  042%=      5-min Rain = 0
KES1 261630Z 17012G19KT 20/07 A3022 RMK A01 T02010070  RH  043%=      5-min Rain = 0
KES1 261631Z 16014KT 20/07 A3022 RMK A01 T02020073  RH  043%=      5-min Rain = 0
KES1 261632Z 16014G19KT 20/07 A3022 RMK A01 T02030070  RH  042%=      5-min Rain = 0
KES1 261633Z 16013KT 20/07 A3022 RMK A01 T02040072  RH  042%=      5-min Rain = 0
KES1 261634Z 17013G18KT 20/07 A3022 RMK A01 T02040072  RH  043%=      5-min Rain = 0
KES1 261635Z 16013G21KT 20/07 A3022 RMK A01 T02040073  RH  043%=      5-min Rain = 0
KES1 261636Z 15014G19KT 21/06 A3022 RMK A01 T02050063  RH  040%=      5-min Rain = 0
KES1 261637Z 16014KT 21/07 A3022 RMK A01 T02050067  RH  041%=      5-min Rain = 0
KES1 261638Z 15014KT 21/07 A3022 RMK A01 T02050067  RH  041%=      5-min Rain = 0
KES1 261639Z 16017KT 21/06 A3022 RMK A01 T02050064  RH  040%=      5-min Rain = 0
KES1 261640Z 15015G20KT 21/06 A3022 RMK A01 T02050063  RH  040%=      5-min Rain = 0
KES1 261641Z 14014KT 20/07 A3022 RMK A01 T02040069  RH  041%=      5-min Rain = 0
KES1 261642Z 15013KT 21/07 A3021 RMK A01 T02050068  RH  041%=      5-min Rain = 0
KES1 261643Z 14013G19KT 21/06 A3021 RMK A01 T02060063  RH  039%=      5-min Rain = 0
KES1 261644Z 15014KT 21/07 A3021 RMK A01 T02060065  RH  040%=      5-min Rain = 0
KES1 261645Z 16010KT 21/07 A3021 RMK A01 T02080069  RH  041%=      5-min Rain = 0
KES1 261646Z 15011KT 21/06 A3021 RMK A01 T02090063  RH  038%=      5-min Rain = 0
KES1 261647Z 16016KT 21/06 A3021 RMK A01 T02100060  RH  038%=      5-min Rain = 0
KES1 261648Z 15012KT 21/07 A3021 RMK A01 T02080065  RH  039%=      5-min Rain = 0
KES1 261649Z 16016KT 21/07 A3021 RMK A01 T02090065  RH  039%=      5-min Rain = 0
KES1 261650Z 16015KT 21/06 A3021 RMK A01 T02080058  RH  038%=      5-min Rain = 0
KES1 261651Z 16017KT 21/06 A3021 RMK A01 T02070059  RH  038%=      5-min Rain = 0
KES1 261652Z 16016KT 21/06 A3021 RMK A01 T02070058  RH  038%=      5-min Rain = 0
KES1 261653Z 16016KT 21/06 A3021 RMK A01 T02070057  RH  037%=      5-min Rain = 0
KES1 261654Z 16018G23KT 21/06 A3021 RMK A01 T02070058  RH  038%=      5-min Rain = 0
KES1 261655Z 15013KT 21/06 A3021 RMK A01 T02070059  RH  038%=      5-min Rain = 0
KES1 261656Z 14016KT 21/06 A302 RMK A01 T02090057  RH  037%=      5-min Rain = 0
KES1 261657Z 14014G19KT 21/05 A302 RMK A01 T02100052  RH  036%=      5-min Rain = 0
KES1 261658Z 14010KT 21/06 A302 RMK A01 T02100060  RH  038%=      5-min Rain = 0
KES1 261659Z 15011G16KT 21/06 A302 RMK A01 T02120063  RH  038%=      5-min Rain = 0
KES1 261700Z 15013G19KT 21/06 A302 RMK A01 T02140064  RH  038%=      5-min Rain = 0
KES1 261701Z 15013KT 22/05 A302 RMK A01 T02150054  RH  035%=      5-min Rain = 0
KES1 261702Z 16016KT 21/05 A302 RMK A01 T02140049  RH  034%=      5-min Rain = 0
KES1 261703Z 15014G20KT 21/05 A302 RMK A01 T02120053  RH  035%=      5-min Rain = 0
KES1 261704Z 15014KT 21/05 A302 RMK A01 T02130053  RH  035%=      5-min Rain = 0
KES1 261705Z 14016KT 21/05 A302 RMK A01 T02130054  RH  036%=      5-min Rain = 0
KES1 261706Z 14012G17KT 21/06 A302 RMK A01 T02120058  RH  037%=      5-min Rain = 0
KES1 261707Z 16011KT 21/07 A302 RMK A01 T02120067  RH  039%=      5-min Rain = 0
KES1 261708Z 16012KT 21/07 A302 RMK A01 T02140065  RH  038%=      5-min Rain = 0
KES1 261709Z 15011KT 22/06 A3021 RMK A01 T02150063  RH  037%=      5-min Rain = 0
KES1 261710Z 15014KT 22/06 A302 RMK A01 T02150063  RH  037%=      5-min Rain = 0
KES1 261711Z 17012KT 22/06 A302 RMK A01 T02150060  RH  036%=      5-min Rain = 0
KES1 261712Z 17015G20KT 22/06 A302 RMK A01 T02150056  RH  036%=      5-min Rain = 0
KES1 261713Z 16013G18KT 21/06 A302 RMK A01 T02140056  RH  036%=      5-min Rain = 0
KES1 261714Z 15013KT 21/06 A302 RMK A01 T02140062  RH  037%=      5-min Rain = 0
KES1 261715Z 15013G18KT 21/06 A302 RMK A01 T02140064  RH  038%=      5-min Rain = 0
KES1 261716Z 14012KT 22/06 A302 RMK A01 T02150060  RH  036%=      5-min Rain = 0
KES1 261717Z 13013KT 22/05 A302 RMK A01 T02150052  RH  034%=      5-min Rain = 0
KES1 261718Z 12012KT 22/06 A302 RMK A01 T02150055  RH  035%=      5-min Rain = 0
KES1 261719Z 15012KT 22/06 A302 RMK A01 T02150060  RH  036%=      5-min Rain = 0
KES1 261720Z 15013KT 22/06 A302 RMK A01 T02170061  RH  036%=      5-min Rain = 0
KES1 261721Z 14014KT 22/05 A302 RMK A01 T02170050  RH  034%=      5-min Rain = 0
KES1 261722Z 15011KT 22/06 A302 RMK A01 T02160060  RH  036%=      5-min Rain = 0
KES1 261723Z 14013KT 22/06 A302 RMK A01 T02170059  RH  036%=      5-min Rain = 0
KES1 261724Z 15014KT 22/05 A302 RMK A01 T02180054  RH  034%=      5-min Rain = 0
KES1 261725Z 14013KT 22/06 A302 RMK A01 T02180055  RH  035%=      5-min Rain = 0
KES1 261726Z 14013KT 22/05 A302 RMK A01 T02180051  RH  034%=      5-min Rain = 0
KES1 261727Z 13013G18KT 22/05 A302 RMK A01 T02180054  RH  034%=      5-min Rain = 0
KES1 261728Z 15012G17KT 22/06 A302 RMK A01 T02180058  RH  035%=      5-min Rain = 0
KES1 261729Z 16017KT 22/05 A302 RMK A01 T02180052  RH  034%=      5-min Rain = 0
KES1 261730Z 16011G16KT 22/05 A302 RMK A01 T02160052  RH  034%=      5-min Rain = 0
KES1 261731Z 16015KT 21/05 A302 RMK A01 T02140052  RH  035%=      5-min Rain = 0
KES1 261732Z 15015KT 21/05 A302 RMK A01 T02140051  RH  034%=      5-min Rain = 0
KES1 261733Z 16016KT 21/05 A302 RMK A01 T02140049  RH  034%=      5-min Rain = 0
KES1 261734Z 16012KT 21/05 A302 RMK A01 T02140051  RH  035%=      5-min Rain = 0
KES1 261735Z 16012G17KT 22/06 A3019 RMK A01 T02150055  RH  035%=      5-min Rain = 0
KES1 261736Z 16014KT 22/05 A3019 RMK A01 T02170054  RH  035%=      5-min Rain = 0
KES1 261737Z 15012KT 22/05 A3019 RMK A01 T02180049  RH  033%=      5-min Rain = 0
KES1 261738Z 15015KT 22/05 A3019 RMK A01 T02180052  RH  034%=      5-min Rain = 0
KES1 261739Z 14016G21KT 22/04 A3019 RMK A01 T02180042  RH  032%=      5-min Rain = 0
KES1 261740Z 14015KT 22/04 A3019 RMK A01 T02170042  RH  032%=      5-min Rain = 0
KES1 261741Z 15012KT 22/06 A3019 RMK A01 T02170055  RH  035%=      5-min Rain = 0
KES1 261742Z 15012KT 22/06 A3019 RMK A01 T02190055  RH  034%=      5-min Rain = 0
KES1 261743Z 14013G19KT 22/05 A3019 RMK A01 T02200053  RH  034%=      5-min Rain = 0
KES1 261744Z 14014KT 22/05 A3019 RMK A01 T02200050  RH  033%=      5-min Rain = 0
KES1 261745Z 14013KT 22/05 A3019 RMK A01 T02210047  RH  032%=      5-min Rain = 0
KES1 261746Z 14013KT 22/05 A3019 RMK A01 T02210045  RH  032%=      5-min Rain = 0
KES1 261747Z 14013KT 22/05 A3019 RMK A01 T02200045  RH  032%=      5-min Rain = 0
KES1 261748Z 15012KT 22/05 A3019 RMK A01 T02200049  RH  033%=      5-min Rain = 0
KES1 261749Z 14015G20KT 22/05 A3019 RMK A01 T02200050  RH  033%=      5-min Rain = 0
KES1 261750Z 14016KT 22/05 A3018 RMK A01 T02200045  RH  032%=      5-min Rain = 0
KES1 261751Z 15011G17KT 22/05 A3019 RMK A01 T02190045  RH  032%=      5-min Rain = 0
KES1 261752Z 14014G20KT 22/04 A3019 RMK A01 T02190043  RH  032%=      5-min Rain = 0
KES1 261753Z 14014KT 22/04 A3019 RMK A01 T02200042  RH  031%=      5-min Rain = 0
KES1 261754Z 14015KT 22/04 A3019 RMK A01 T02210043  RH  031%=      5-min Rain = 0
KES1 261755Z 14013KT 22/04 A3019 RMK A01 T02200037  RH  030%=      5-min Rain = 0
KES1 261756Z 15012KT 22/05 A3019 RMK A01 T02200048  RH  033%=      5-min Rain = 0
KES1 261757Z 15013KT 22/05 A3019 RMK A01 T02210047  RH  032%=      5-min Rain = 0
KES1 261758Z 16015KT 22/04 A3018 RMK A01 T02220043  RH  031%=      5-min Rain = 0
KES1 261759Z 16015KT 22/04 A3018 RMK A01 T02200040  RH  031%=      5-min Rain = 0
KES1 261800Z 15012KT 22/05 A3018 RMK A01 T02190047  RH  032%=      5-min Rain = 0
KES1 261801Z 15014KT 22/05 A3018 RMK A01 T02200052  RH  034%=      5-min Rain = 0
KES1 261802Z 17015G20KT 22/04 A3018 RMK A01 T02220042  RH  031%=      5-min Rain = 0
KES1 261803Z 16013KT 22/04 A3018 RMK A01 T02200040  RH  031%=      5-min Rain = 0
KES1 261804Z 14013KT 22/04 A3018 RMK A01 T02200041  RH  031%=      5-min Rain = 0
KES1 261805Z 13013KT 22/04 A3018 RMK A01 T02200044  RH  032%=      5-min Rain = 0
KES1 261806Z 13012KT 22/04 A3018 RMK A01 T02210041  RH  031%=      5-min Rain = 0
KES1 261807Z 13011KT 22/04 A3018 RMK A01 T02220040  RH  030%=      5-min Rain = 0
KES1 261808Z 15011KT 22/05 A3018 RMK A01 T02220047  RH  032%=      5-min Rain = 0
KES1 261809Z 14011G16KT 22/05 A3018 RMK A01 T02230051  RH  033%=      5-min Rain = 0
KES1 261810Z 15011KT 22/05 A3018 RMK A01 T02240053  RH  033%=      5-min Rain = 0
KES1 261811Z 16012KT 23/06 A3018 RMK A01 T02260059  RH  034%=      5-min Rain = 0
KES1 261812Z 16014KT 23/05 A3018 RMK A01 T02260048  RH  031%=      5-min Rain = 0
KES1 261813Z 16013KT 22/05 A3018 RMK A01 T02240050  RH  032%=      5-min Rain = 0
KES1 261814Z 17014KT 22/05 A3017 RMK A01 T02230049  RH  032%=      5-min Rain = 0
KES1 261815Z 15014KT 22/05 A3018 RMK A01 T02230047  RH  032%=      5-min Rain = 0
KES1 261816Z 15012KT 22/05 A3018 RMK A01 T02210051  RH  033%=      5-min Rain = 0
KES1 261817Z 16015KT 22/05 A3017 RMK A01 T02220050  RH  033%=      5-min Rain = 0
KES1 261818Z 15011KT 22/06 A3017 RMK A01 T02220056  RH  034%=      5-min Rain = 0
KES1 261819Z 16013KT 23/06 A3017 RMK A01 T02250055  RH  033%=      5-min Rain = 0
KES1 261820Z 16012G18KT 23/05 A3017 RMK A01 T02250051  RH  032%=      5-min Rain = 0
KES1 261821Z 17015KT 22/05 A3017 RMK A01 T02240047  RH  031%=      5-min Rain = 0
KES1 261822Z 18014KT 22/05 A3017 RMK A01 T02230047  RH  032%=      5-min Rain = 0
KES1 261823Z 17013KT 22/05 A3017 RMK A01 T02230045  RH  031%=      5-min Rain = 0
KES1 261824Z 18012G17KT 22/04 A3017 RMK A01 T02220040  RH  030%=      5-min Rain = 0
KES1 261825Z 16012G17KT 22/05 A3017 RMK A01 T02220047  RH  032%=      5-min Rain = 0
KES1 261826Z 16012KT 22/05 A3017 RMK A01 T02230048  RH  032%=      5-min Rain = 0
KES1 261827Z 14011G18KT 23/05 A3017 RMK A01 T02250054  RH  033%=      5-min Rain = 0
KES1 261828Z 15012KT 23/05 A3017 RMK A01 T02270047  RH  031%=      5-min Rain = 0
KES1 261829Z 14013KT 23/04 A3017 RMK A01 T02270042  RH  030%=      5-min Rain = 0
KES1 261830Z 13012KT 23/04 A3017 RMK A01 T02260042  RH  030%=      5-min Rain = 0
KES1 261831Z 13014KT 23/04 A3017 RMK A01 T02250037  RH  029%=      5-min Rain = 0
KES1 261832Z 13012KT 22/05 A3017 RMK A01 T02230045  RH  031%=      5-min Rain = 0
KES1 261833Z 14013KT 22/05 A3017 RMK A01 T02240045  RH  031%=      5-min Rain = 0
KES1 261834Z 16013KT 23/05 A3017 RMK A01 T02250048  RH  032%=      5-min Rain = 0
KES1 261835Z 15013KT 23/04 A3016 RMK A01 T02250042  RH  030%=      5-min Rain = 0
KES1 261836Z 16010KT 22/05 A3016 RMK A01 T02230048  RH  032%=      5-min Rain = 0
KES1 261837Z 15016G21KT 23/05 A3016 RMK A01 T02250051  RH  032%=      5-min Rain = 0
KES1 261838Z 16016KT 23/04 A3016 RMK A01 T02260041  RH  030%=      5-min Rain = 0
KES1 261839Z 16017KT 22/04 A3016 RMK A01 T02240035  RH  029%=      5-min Rain = 0
KES1 261840Z 16013KT 22/04 A3016 RMK A01 T02220041  RH  031%=      5-min Rain = 0
KES1 261841Z 17014KT 22/04 A3016 RMK A01 T02210041  RH  031%=      5-min Rain = 0
KES1 261842Z 16013KT 22/04 A3016 RMK A01 T02220039  RH  030%=      5-min Rain = 0
KES1 261843Z 16012KT 22/05 A3016 RMK A01 T02220045  RH  031%=      5-min Rain = 0
KES1 261844Z 18014KT 22/04 A3016 RMK A01 T02240043  RH  031%=      5-min Rain = 0
KES1 261845Z 18010KT 22/05 A3016 RMK A01 T02240046  RH  031%=      5-min Rain = 0
KES1 261846Z 17009KT 23/06 A3016 RMK A01 T02250056  RH  033%=      5-min Rain = 0
KES1 261847Z 14011KT 23/05 A3016 RMK A01 T02270046  RH  031%=      5-min Rain = 0
KES1 261848Z 14012KT 23/05 A3016 RMK A01 T02270048  RH  031%=      5-min Rain = 0
KES1 261849Z 17013KT 23/05 A3016 RMK A01 T02280050  RH  032%=      5-min Rain = 0
KES1 261850Z 15011KT 23/06 A3016 RMK A01 T02270055  RH  033%=      5-min Rain = 0
KES1 261851Z 14016KT 23/05 A3016 RMK A01 T02280052  RH  032%=      5-min Rain = 0
KES1 261852Z 14015KT 23/05 A3016 RMK A01 T02280050  RH  031%=      5-min Rain = 0
KES1 261853Z 17013KT 23/05 A3016 RMK A01 T02280051  RH  032%=      5-min Rain = 0
KES1 261854Z 17012KT 23/05 A3015 RMK A01 T02280046  RH  031%=      5-min Rain = 0
KES1 261855Z 17014KT 23/04 A3015 RMK A01 T02270043  RH  030%=      5-min Rain = 0
KES1 261856Z 17014G19KT 23/05 A3015 RMK A01 T02260046  RH  031%=      5-min Rain = 0
KES1 261857Z 17012KT 23/04 A3015 RMK A01 T02250041  RH  030%=      5-min Rain = 0
KES1 261858Z 16010KT 22/05 A3015 RMK A01 T02240046  RH  031%=      5-min Rain = 0
KES1 261859Z 15013G18KT 22/05 A3015 RMK A01 T02240053  RH  033%=      5-min Rain = 0
KES1 261900Z 15015KT 23/05 A3015 RMK A01 T02250047  RH  031%=      5-min Rain = 0
KES1 261901Z 14012KT 23/05 A3015 RMK A01 T02250052  RH  032%=      5-min Rain = 0
KES1 261902Z 14015KT 23/05 A3015 RMK A01 T02260052  RH  032%=      5-min Rain = 0
KES1 261903Z 14015KT 23/05 A3015 RMK A01 T02270052  RH  032%=      5-min Rain = 0
KES1 261904Z 17013G18KT 23/06 A3015 RMK A01 T02260055  RH  033%=      5-min Rain = 0
KES1 261905Z 17015KT 23/05 A3015 RMK A01 T02260051  RH  032%=      5-min Rain = 0
KES1 261906Z 15013KT 23/05 A3015 RMK A01 T02250050  RH  032%=      5-min Rain = 0
KES1 261907Z 17013KT 23/06 A3015 RMK A01 T02250058  RH  034%=      5-min Rain = 0
KES1 261908Z 16011KT 23/05 A3015 RMK A01 T02260051  RH  032%=      5-min Rain = 0
KES1 261909Z 14013KT 23/06 A3015 RMK A01 T02260059  RH  034%=      5-min Rain = 0
KES1 261910Z 16014G20KT 23/06 A3015 RMK A01 T02270057  RH  033%=      5-min Rain = 0
KES1 261911Z 17015KT 23/06 A3015 RMK A01 T02270056  RH  033%=      5-min Rain = 0
KES1 261912Z 16012KT 23/06 A3015 RMK A01 T02260057  RH  033%=      5-min Rain = 0
KES1 261913Z 18012KT 23/06 A3015 RMK A01 T02260060  RH  034%=      5-min Rain = 0
KES1 261914Z 18014KT 23/06 A3014 RMK A01 T02260056  RH  033%=      5-min Rain = 0
KES1 261915Z 17013KT 23/06 A3014 RMK A01 T02260058  RH  034%=      5-min Rain = 0
KES1 261916Z 16013KT 23/06 A3014 RMK A01 T02270062  RH  034%=      5-min Rain = 0
KES1 261917Z 15015KT 23/06 A3014 RMK A01 T02290058  RH  033%=      5-min Rain = 0
KES1 261918Z 17013KT 23/06 A3014 RMK A01 T02280061  RH  034%=      5-min Rain = 0
KES1 261919Z 18011KT 23/06 A3014 RMK A01 T02280064  RH  035%=      5-min Rain = 0
KES1 261920Z 18013KT 23/06 A3014 RMK A01 T02290062  RH  034%=      5-min Rain = 0
KES1 261921Z 16012G17KT 23/06 A3014 RMK A01 T02280058  RH  033%=      5-min Rain = 0
KES1 261922Z 15014KT 23/06 A3014 RMK A01 T02270059  RH  034%=      5-min Rain = 0
KES1 261923Z 16016KT 23/06 A3014 RMK A01 T02260057  RH  033%=      5-min Rain = 0
KES1 261924Z 16014KT 23/06 A3014 RMK A01 T02250056  RH  033%=      5-min Rain = 0
KES1 261925Z 16012KT 22/05 A3014 RMK A01 T02240054  RH  033%=      5-min Rain = 0
KES1 261926Z 16012G17KT 22/06 A3014 RMK A01 T02240057  RH  034%=      5-min Rain = 0
KES1 261927Z 17014G19KT 23/06 A3014 RMK A01 T02260057  RH  033%=      5-min Rain = 0
KES1 261928Z 16013G20KT 23/06 A3014 RMK A01 T02270056  RH  033%=      5-min Rain = 0
KES1 261929Z 19012KT 23/06 A3014 RMK A01 T02280063  RH  034%=      5-min Rain = 0
KES1 261930Z 17011KT 23/06 A3014 RMK A01 T02290062  RH  034%=      5-min Rain = 0
KES1 261931Z 18016G21KT 23/06 A3014 RMK A01 T02290060  RH  033%=      5-min Rain = 0
KES1 261932Z 17015KT 23/06 A3014 RMK A01 T02280057  RH  033%=      5-min Rain = 0
KES1 261933Z 16015KT 23/06 A3014 RMK A01 T02270058  RH  033%=      5-min Rain = 0
KES1 261934Z 17014KT 23/06 A3014 RMK A01 T02280063  RH  034%=      5-min Rain = 0
KES1 261935Z 17011G17KT 23/06 A3014 RMK A01 T02300063  RH  034%=      5-min Rain = 0
KES1 261936Z 17016G21KT 23/06 A3014 RMK A01 T02310057  RH  032%=      5-min Rain = 0
KES1 261937Z 18013KT 23/06 A3014 RMK A01 T02290059  RH  033%=      5-min Rain = 0
KES1 261938Z 16013KT 23/06 A3014 RMK A01 T02280064  RH  035%=      5-min Rain = 0
KES1 261939Z 16011KT 23/06 A3014 RMK A01 T02290063  RH  034%=      5-min Rain = 0
KES1 261940Z 18015KT 23/06 A3013 RMK A01 T02290063  RH  034%=      5-min Rain = 0
KES1 261941Z 17012KT 23/06 A3013 RMK A01 T02290064  RH  034%=      5-min Rain = 0
KES1 261942Z 18012KT 23/07 A3013 RMK A01 T02280067  RH  035%=      5-min Rain = 0
KES1 261943Z 15017KT 23/07 A3013 RMK A01 T02300068  RH  035%=      5-min Rain = 0
KES1 261944Z 14012KT 23/07 A3013 RMK A01 T02310067  RH  035%=      5-min Rain = 0
KES1 261945Z 14012G17KT 23/07 A3013 RMK A01 T02310070  RH  035%=      5-min Rain = 0
KES1 261946Z 15011KT 23/07 A3013 RMK A01 T02310067  RH  035%=      5-min Rain = 0
KES1 261947Z 17015KT 23/07 A3013 RMK A01 T02320069  RH  035%=      5-min Rain = 0
KES1 261948Z 18012KT 23/07 A3013 RMK A01 T02320066  RH  034%=      5-min Rain = 0
KES1 261949Z 17010KT 23/07 A3013 RMK A01 T02300067  RH  035%=      5-min Rain = 0
KES1 261950Z 16009KT 23/07 A3013 RMK A01 T02310070  RH  035%=      5-min Rain = 0
KES1 261951Z 17014KT 23/07 A3013 RMK A01 T02330071  RH  035%=      5-min Rain = 0
KES1 261952Z 16011KT 23/07 A3013 RMK A01 T02330068  RH  034%=      5-min Rain = 0
KES1 261953Z 18013KT 23/07 A3013 RMK A01 T02330068  RH  034%=      5-min Rain = 0
KES1 261954Z 18012KT 23/06 A3013 RMK A01 T02320061  RH  033%=      5-min Rain = 0
KES1 261955Z 19013KT 23/06 A3013 RMK A01 T02310061  RH  033%=      5-min Rain = 0
KES1 261956Z 16015G20KT 23/07 A3013 RMK A01 T02300066  RH  035%=      5-min Rain = 0
KES1 261957Z 16014G20KT 23/06 A3013 RMK A01 T02300063  RH  034%=      5-min Rain = 0
KES1 261958Z 16013KT 23/06 A3013 RMK A01 T02300061  RH  034%=      5-min Rain = 0
KES1 261959Z 17010KT 23/06 A3013 RMK A01 T02290059  RH  033%=      5-min Rain = 0
KES1 262000Z 14017KT 23/06 A3012 RMK A01 T02290062  RH  034%=      5-min Rain = 0
KES1 262001Z 14017KT 23/06 A3012 RMK A01 T02290057  RH  033%=      5-min Rain = 0
KES1 262002Z 15015G21KT 23/06 A3012 RMK A01 T02280056  RH  033%=      5-min Rain = 0
KES1 262003Z 14012KT 23/06 A3012 RMK A01 T02280057  RH  033%=      5-min Rain = 0
KES1 262004Z 15016KT 23/06 A3012 RMK A01 T02290059  RH  033%=      5-min Rain = 0
KES1 262005Z 14018KT 23/06 A3012 RMK A01 T02290059  RH  033%=      5-min Rain = 0
KES1 262006Z 15018KT 23/06 A3012 RMK A01 T02290059  RH  033%=      5-min Rain = 0
KES1 262007Z 17016KT 23/06 A3012 RMK A01 T02280060  RH  034%=      5-min Rain = 0
KES1 262008Z 16019G24KT 23/06 A3012 RMK A01 T02280057  RH  033%=      5-min Rain = 0
KES1 262009Z 15014KT 23/06 A3012 RMK A01 T02270061  RH  034%=      5-min Rain = 0
KES1 262010Z 15012KT 23/07 A3012 RMK A01 T02290066  RH  035%=      5-min Rain = 0
KES1 262011Z 15011KT 23/06 A3012 RMK A01 T02300063  RH  034%=      5-min Rain = 0
KES1 262012Z 15012KT 23/06 A3012 RMK A01 T02310064  RH  034%=      5-min Rain = 0
KES1 262013Z 14014G19KT 23/07 A3011 RMK A01 T02310066  RH  034%=      5-min Rain = 0
KES1 262014Z 14015KT 23/06 A3011 RMK A01 T02320062  RH  033%=      5-min Rain = 0
KES1 262015Z 16013G18KT 23/06 A3011 RMK A01 T02320062  RH  033%=      5-min Rain = 0
KES1 262016Z 16012KT 23/07 A3011 RMK A01 T02310066  RH  034%=      5-min Rain = 0
KES1 262017Z 18008KT 23/07 A3011 RMK A01 T02340074  RH  036%=      5-min Rain = 0
KES1 262018Z 16009G14KT 24/07 A3011 RMK A01 T02360074  RH  035%=      5-min Rain = 0
KES1 262019Z 18015G20KT 24/07 A3011 RMK A01 T02370074  RH  035%=      5-min Rain = 0
KES1 262020Z 16014G19KT 24/07 A3011 RMK A01 T02360070  RH  034%=      5-min Rain = 0
KES1 262021Z 15012KT 24/07 A3011 RMK A01 T02360070  RH  035%=      5-min Rain = 0
KES1 262022Z 14014KT 24/07 A3011 RMK A01 T02350070  RH  035%=      5-min Rain = 0
KES1 262023Z 14015KT 24/07 A3011 RMK A01 T02350068  RH  034%=      5-min Rain = 0
KES1 262024Z 14013KT 24/07 A3011 RMK A01 T02350070  RH  034%=      5-min Rain = 0
KES1 262025Z 15012KT 24/07 A3011 RMK A01 T02350069  RH  034%=      5-min Rain = 0
KES1 262026Z 16013KT 24/07 A3011 RMK A01 T02360070  RH  034%=      5-min Rain = 0
KES1 262027Z 15009KT 24/07 A3011 RMK A01 T02360069  RH  034%=      5-min Rain = 0
KES1 262028Z 18011KT 24/07 A301 RMK A01 T02360071  RH  035%=      5-min Rain = 0
KES1 262029Z 17012G18KT 24/07 A301 RMK A01 T02370068  RH  034%=      5-min Rain = 0
KES1 262030Z 18013G18KT 24/07 A301 RMK A01 T02370069  RH  034%=      5-min Rain = 0
KES1 262031Z 18016KT 24/06 A301 RMK A01 T02370062  RH  032%=      5-min Rain = 0
KES1 262032Z 19014KT 24/06 A301 RMK A01 T02350062  RH  033%=      5-min Rain = 0
KES1 262033Z 18016KT 23/06 A301 RMK A01 T02330060  RH  033%=      5-min Rain = 0
KES1 262034Z 15012KT 23/07 A301 RMK A01 T02330070  RH  035%=      5-min Rain = 0
KES1 262035Z 16012KT 24/07 A301 RMK A01 T02350072  RH  035%=      5-min Rain = 0
KES1 262036Z 16014KT 24/08 A301 RMK A01 T02380075  RH  035%=      5-min Rain = 0
KES1 262037Z 16016KT 24/07 A301 RMK A01 T02390066  RH  033%=      5-min Rain = 0
KES1 262038Z 17015KT 24/06 A301 RMK A01 T02360061  RH  032%=      5-min Rain = 0
KES1 262039Z 17014KT 23/06 A3009 RMK A01 T02330060  RH  033%=      5-min Rain = 0
KES1 262040Z 17013KT 23/07 A3009 RMK A01 T02320065  RH  034%=      5-min Rain = 0
KES1 262041Z 18013KT 23/06 A3009 RMK A01 T02330060  RH  033%=      5-min Rain = 0
KES1 262042Z 16014G21KT 23/07 A3009 RMK A01 T02340065  RH  034%=      5-min Rain = 0
KES1 262043Z 16015KT 23/06 A3009 RMK A01 T02340062  RH  033%=      5-min Rain = 0
KES1 262044Z 16017KT 23/06 A3009 RMK A01 T02340060  RH  033%=      5-min Rain = 0
KES1 262045Z 18012KT 23/06 A3009 RMK A01 T02330060  RH  033%=      5-min Rain = 0
KES1 262046Z 18013KT 23/06 A3009 RMK A01 T02330063  RH  034%=      5-min Rain = 0
KES1 262047Z 19016KT 23/06 A3009 RMK A01 T02330061  RH  033%=      5-min Rain = 0
KES1 262048Z 18015G23KT 23/06 A3009 RMK A01 T02320062  RH  033%=      5-min Rain = 0
KES1 262049Z 17015KT 23/06 A3009 RMK A01 T02320060  RH  033%=      5-min Rain = 0
KES1 262050Z 18015KT 23/06 A3008 RMK A01 T02320062  RH  033%=      5-min Rain = 0
KES1 262051Z 18012G20KT 23/06 A3008 RMK A01 T02330063  RH  034%=      5-min Rain = 0
KES1 262052Z 17015KT 23/07 A3008 RMK A01 T02340067  RH  034%=      5-min Rain = 0
KES1 262053Z 18014KT 24/06 A3008 RMK A01 T02350063  RH  033%=      5-min Rain = 0
KES1 262054Z 17013KT 24/06 A3008 RMK A01 T02350062  RH  033%=      5-min Rain = 0
KES1 262055Z 17012G17KT 23/07 A3008 RMK A01 T02340067  RH  034%=      5-min Rain = 0
KES1 262056Z 18012KT 24/07 A3008 RMK A01 T02350065  RH  033%=      5-min Rain = 0
KES1 262057Z 17010G15KT 24/07 A3008 RMK A01 T02360068  RH  034%=      5-min Rain = 0
KES1 262058Z 17013KT 24/07 A3008 RMK A01 T02360065  RH  033%=      5-min Rain = 0
KES1 262059Z 18016KT 24/06 A3007 RMK A01 T02370064  RH  033%=      5-min Rain = 0
KES1 262100Z 17015G20KT 24/07 A3008 RMK A01 T02370069  RH  034%=      5-min Rain = 0
KES1 262101Z 17014KT 24/06 A3008 RMK A01 T02360061  RH  032%=      5-min Rain = 0
KES1 262102Z 17012KT 23/06 A3008 RMK A01 T02340059  RH  032%=      5-min Rain = 0
KES1 262103Z 18010KT 23/06 A3008 RMK A01 T02330061  RH  033%=      5-min Rain = 0
KES1 262104Z 17013KT 23/07 A3007 RMK A01 T02340066  RH  034%=      5-min Rain = 0
KES1 262105Z 18013G18KT 24/07 A3007 RMK A01 T02350065  RH  033%=      5-min Rain = 0
KES1 262106Z 18014KT 24/06 A3007 RMK A01 T02360061  RH  032%=      5-min Rain = 0
KES1 262107Z 18013KT 24/06 A3007 RMK A01 T02350063  RH  033%=      5-min Rain = 0
KES1 262108Z 17014KT 24/07 A3007 RMK A01 T02350067  RH  034%=      5-min Rain = 0
KES1 262109Z 16014KT 24/06 A3007 RMK A01 T02350063  RH  033%=      5-min Rain = 0
KES1 262110Z 16014KT 24/06 A3007 RMK A01 T02350063  RH  033%=      5-min Rain = 0
KES1 262111Z 17012KT 24/06 A3007 RMK A01 T02350064  RH  033%=      5-min Rain = 0
KES1 262112Z 19012G17KT 24/06 A3007 RMK A01 T02350064  RH  033%=      5-min Rain = 0
KES1 262113Z 19018KT 24/06 A3006 RMK A01 T02350059  RH  032%=      5-min Rain = 0
KES1 262114Z 17019G24KT 24/06 A3007 RMK A01 T02350055  RH  031%=      5-min Rain = 0
KES1 262115Z 18012G17KT 23/06 A3007 RMK A01 T02330056  RH  032%=      5-min Rain = 0
KES1 262116Z 18015KT 23/06 A3007 RMK A01 T02320055  RH  032%=      5-min Rain = 0
KES1 262117Z 17015G20KT 23/06 A3006 RMK A01 T02330059  RH  032%=      5-min Rain = 0
KES1 262118Z 17011G16KT 23/07 A3006 RMK A01 T02340067  RH  034%=      5-min Rain = 0
KES1 262119Z 18013G18KT 24/06 A3006 RMK A01 T02370063  RH  033%=      5-min Rain = 0
KES1 262120Z 18012G17KT 24/06 A3006 RMK A01 T02370061  RH  032%=      5-min Rain = 0
KES1 262121Z 16013KT 24/06 A3006 RMK A01 T02370064  RH  033%=      5-min Rain = 0
KES1 262122Z 17016G22KT 24/06 A3006 RMK A01 T02370058  RH  031%=      5-min Rain = 0
KES1 262123Z 17014G20KT 24/05 A3006 RMK A01 T02360051  RH  030%=      5-min Rain = 0
KES1 262124Z 18015G21KT 24/05 A3006 RMK A01 T02350054  RH  031%=      5-min Rain = 0
KES1 262125Z 18014G19KT 24/06 A3006 RMK A01 T02350055  RH  031%=      5-min Rain = 0
KES1 262126Z 18016KT 24/06 A3006 RMK A01 T02350055  RH  031%=      5-min Rain = 0
KES1 262127Z 18016G21KT 23/05 A3006 RMK A01 T02340052  RH  031%=      5-min Rain = 0
KES1 262128Z 17014KT 23/05 A3006 RMK A01 T02340054  RH  031%=      5-min Rain = 0
KES1 262129Z 18012KT 23/06 A3006 RMK A01 T02340057  RH  032%=      5-min Rain = 0
KES1 262130Z 17012KT 24/06 A3006 RMK A01 T02350063  RH  033%=      5-min Rain = 0
KES1 262131Z 17011KT 24/06 A3005 RMK A01 T02360063  RH  033%=      5-min Rain = 0
KES1 262132Z 16012KT 24/06 A3005 RMK A01 T02360059  RH  032%=      5-min Rain = 0
KES1 262133Z 16017KT 24/06 A3005 RMK A01 T02370058  RH  032%=      5-min Rain = 0
KES1 262134Z 16016KT 24/05 A3005 RMK A01 T02350054  RH  031%=      5-min Rain = 0
KES1 262135Z 16013KT 23/05 A3005 RMK A01 T02340054  RH  031%=      5-min Rain = 0
KES1 262136Z 17013KT 23/06 A3005 RMK A01 T02330055  RH  032%=      5-min Rain = 0
KES1 262137Z 17015G21KT 23/06 A3005 RMK A01 T02340058  RH  032%=      5-min Rain = 0
KES1 262138Z 17014KT 24/06 A3005 RMK A01 T02350057  RH  032%=      5-min Rain = 0
KES1 262139Z 18015KT 24/05 A3005 RMK A01 T02350053  RH  031%=      5-min Rain = 0
KES1 262140Z 18014KT 23/05 A3005 RMK A01 T02340053  RH  031%=      5-min Rain = 0
KES1 262141Z 18013KT 23/05 A3004 RMK A01 T02330052  RH  031%=      5-min Rain = 0
KES1 262142Z 16009KT 23/06 A3004 RMK A01 T02330059  RH  032%=      5-min Rain = 0
KES1 262143Z 16012KT 24/06 A3004 RMK A01 T02350061  RH  033%=      5-min Rain = 0
KES1 262144Z 16013KT 24/06 A3004 RMK A01 T02360058  RH  032%=      5-min Rain = 0
KES1 262145Z 15013G18KT 24/06 A3004 RMK A01 T02360060  RH  032%=      5-min Rain = 0
KES1 262146Z 17013G21KT 24/06 A3004 RMK A01 T02370064  RH  033%=      5-min Rain = 0
KES1 262147Z 17014G19KT 24/06 A3004 RMK A01 T02380056  RH  031%=      5-min Rain = 0
KES1 262148Z 18016KT 24/06 A3004 RMK A01 T02360056  RH  031%=      5-min Rain = 0
KES1 262149Z 18013KT 24/05 A3004 RMK A01 T02350054  RH  031%=      5-min Rain = 0
KES1 262150Z 17010KT 23/06 A3003 RMK A01 T02340059  RH  032%=      5-min Rain = 0
KES1 262151Z 18012KT 24/06 A3003 RMK A01 T02360060  RH  032%=      5-min Rain = 0
KES1 262152Z 16011KT 24/06 A3003 RMK A01 T02370058  RH  031%=      5-min Rain = 0
KES1 262153Z 16014KT 24/06 A3003 RMK A01 T02370058  RH  031%=      5-min Rain = 0
KES1 262154Z 17012KT 24/06 A3003 RMK A01 T02370055  RH  031%=      5-min Rain = 0
KES1 262155Z 17012G17KT 24/05 A3003 RMK A01 T02360054  RH  031%=      5-min Rain = 0
KES1 262156Z 17013KT 24/06 A3003 RMK A01 T02360056  RH  031%=      5-min Rain = 0
KES1 262157Z 18014G19KT 24/06 A3003 RMK A01 T02350059  RH  032%=      5-min Rain = 0
KES1 262158Z 18017KT 24/06 A3003 RMK A01 T02370057  RH  031%=      5-min Rain = 0
KES1 262159Z 18018KT 24/05 A3003 RMK A01 T02360053  RH  031%=      5-min Rain = 0
KES1 262200Z 17011KT 24/06 A3003 RMK A01 T02350055  RH  031%=      5-min Rain = 0
KES1 262201Z 17012KT 24/06 A3003 RMK A01 T02350058  RH  032%=      5-min Rain = 0
KES1 262202Z 17014KT 24/06 A3003 RMK A01 T02350055  RH  031%=      5-min Rain = 0
KES1 262203Z 17013KT 24/06 A3002 RMK A01 T02360058  RH  032%=      5-min Rain = 0
KES1 262204Z 17016KT 24/05 A3002 RMK A01 T02360052  RH  030%=      5-min Rain = 0
KES1 262205Z 16016G21KT 23/05 A3002 RMK A01 T02340052  RH  031%=      5-min Rain = 0
KES1 262206Z 16015G21KT 23/06 A3002 RMK A01 T02330057  RH  032%=      5-min Rain = 0
KES1 262207Z 17013G19KT 23/05 A3002 RMK A01 T02330054  RH  031%=      5-min Rain = 0
KES1 262208Z 17015G20KT 23/06 A3002 RMK A01 T02330055  RH  032%=      5-min Rain = 0
KES1 262209Z 17013G19KT 23/06 A3002 RMK A01 T02330057  RH  032%=      5-min Rain = 0
KES1 262210Z 17012KT 23/06 A3002 RMK A01 T02330060  RH  033%=      5-min Rain = 0
KES1 262211Z 16013KT 23/06 A3002 RMK A01 T02340062  RH  033%=      5-min Rain = 0
KES1 262212Z 16017KT 23/06 A3002 RMK A01 T02340060  RH  032%=      5-min Rain = 0
KES1 262213Z 16010G15KT 23/06 A3002 RMK A01 T02340061  RH  033%=      5-min Rain = 0
KES1 262214Z 16014G20KT 24/06 A3002 RMK A01 T02350060  RH  032%=      5-min Rain = 0
KES1 262215Z 17012KT 24/06 A3002 RMK A01 T02350059  RH  032%=      5-min Rain = 0
KES1 262216Z 17017G22KT 24/06 A3002 RMK A01 T02350058  RH  032%=      5-min Rain = 0
KES1 262217Z 18015KT 23/06 A3002 RMK A01 T02340056  RH  032%=      5-min Rain = 0
KES1 262218Z 16014KT 23/06 A3001 RMK A01 T02330059  RH  032%=      5-min Rain = 0
KES1 262219Z 18014G19KT 23/06 A3001 RMK A01 T02330061  RH  033%=      5-min Rain = 0
KES1 262220Z 17012KT 23/06 A3001 RMK A01 T02340062  RH  033%=      5-min Rain = 0
KES1 262221Z 16013G19KT 24/07 A3001 RMK A01 T02350065  RH  033%=      5-min Rain = 0
KES1 262222Z 15013G18KT 24/07 A3001 RMK A01 T02360065  RH  033%=      5-min Rain = 0
KES1 262223Z 15014KT 24/06 A3001 RMK A01 T02360058  RH  032%=      5-min Rain = 0
KES1 262224Z 16013KT 23/06 A3001 RMK A01 T02340061  RH  033%=      5-min Rain = 0
KES1 262225Z 18010KT 23/07 A3001 RMK A01 T02340066  RH  034%=      5-min Rain = 0
KES1 262226Z 17011KT 24/07 A3001 RMK A01 T02350070  RH  034%=      5-min Rain = 0
KES1 262227Z 18009KT 24/07 A3001 RMK A01 T02370072  RH  035%=      5-min Rain = 0
KES1 262228Z 18014G19KT 24/07 A3001 RMK A01 T02380067  RH  033%=      5-min Rain = 0
KES1 262229Z 17013KT 24/07 A3001 RMK A01 T02370066  RH  033%=      5-min Rain = 0
KES1 262230Z 17012KT 24/07 A3001 RMK A01 T02360068  RH  034%=      5-min Rain = 0
KES1 262231Z 17012G17KT 24/07 A30 RMK A01 T02360067  RH  034%=      5-min Rain = 0
KES1 262232Z 16016KT 24/06 A30 RMK A01 T02350063  RH  033%=      5-min Rain = 0
KES1 262233Z 16015G20KT 23/06 A30 RMK A01 T02340064  RH  033%=      5-min Rain = 0
KES1 262234Z 16017KT 23/06 A30 RMK A01 T02330062  RH  033%=      5-min Rain = 0
KES1 262235Z 16017G22KT 23/06 A30 RMK A01 T02330061  RH  033%=      5-min Rain = 0
KES1 262236Z 16016G22KT 23/06 A30 RMK A01 T02320057  RH  032%=      5-min Rain = 0
KES1 262237Z 16014KT 23/06 A30 RMK A01 T02310062  RH  034%=      5-min Rain = 0
KES1 262238Z 17013G19KT 23/06 A30 RMK A01 T02310063  RH  034%=      5-min Rain = 0
KES1 262239Z 17015G20KT 23/06 A30 RMK A01 T02330063  RH  033%=      5-min Rain = 0
KES1 262240Z 18017KT 23/06 A30 RMK A01 T02340061  RH  033%=      5-min Rain = 0
KES1 262241Z 17014G19KT 23/06 A30 RMK A01 T02330062  RH  033%=      5-min Rain = 0
KES1 262242Z 16013G18KT 23/06 A30 RMK A01 T02320064  RH  034%=      5-min Rain = 0
KES1 262243Z 16016G21KT 23/06 A30 RMK A01 T02330059  RH  033%=      5-min Rain = 0
KES1 262244Z 17013KT 23/06 A30 RMK A01 T02320059  RH  033%=      5-min Rain = 0
KES1 262245Z 17015G21KT 23/06 A2999 RMK A01 T02330063  RH  034%=      5-min Rain = 0
KES1 262246Z 16012KT 23/06 A2999 RMK A01 T02340064  RH  033%=      5-min Rain = 0
KES1 262247Z 17014KT 24/07 A2999 RMK A01 T02350065  RH  033%=      5-min Rain = 0
KES1 262248Z 16012G17KT 23/06 A2999 RMK A01 T02340063  RH  033%=      5-min Rain = 0
KES1 262249Z 17013KT 23/06 A2999 RMK A01 T02340063  RH  033%=      5-min Rain = 0
KES1 262250Z 17013G19KT 23/07 A2999 RMK A01 T02330065  RH  034%=      5-min Rain = 0
KES1 262251Z 16015KT 23/06 A2999 RMK A01 T02330061  RH  033%=      5-min Rain = 0
KES1 262252Z 16014KT 23/06 A2999 RMK A01 T02330060  RH  033%=      5-min Rain = 0
KES1 262253Z 18012G17KT 23/06 A2999 RMK A01 T02320063  RH  034%=      5-min Rain = 0
KES1 262254Z 18013KT 23/07 A2999 RMK A01 T02330066  RH  034%=      5-min Rain = 0
KES1 262255Z 17016KT 23/06 A2999 RMK A01 T02340063  RH  033%=      5-min Rain = 0
KES1 262256Z 17016G21KT 23/06 A2999 RMK A01 T02340060  RH  032%=      5-min Rain = 0
KES1 262257Z 15014KT 23/06 A2999 RMK A01 T02340062  RH  033%=      5-min Rain = 0
KES1 262258Z 15016KT 23/06 A2999 RMK A01 T02330059  RH  032%=      5-min Rain = 0
KES1 262259Z 17013KT 23/06 A2999 RMK A01 T02330061  RH  033%=      5-min Rain = 0
KES1 262300Z 17015G20KT 23/06 A2999 RMK A01 T02330064  RH  033%=      5-min Rain = 0
KES1 262301Z 17017KT 23/06 A2999 RMK A01 T02340059  RH  032%=      5-min Rain = 0
KES1 262302Z 17013KT 23/06 A2999 RMK A01 T02330060  RH  033%=      5-min Rain = 0
KES1 262303Z 17014KT 23/06 A2999 RMK A01 T02320061  RH  033%=      5-min Rain = 0
KES1 262304Z 17013KT 23/06 A2999 RMK A01 T02320059  RH  033%=      5-min Rain = 0
KES1 262305Z 17011KT 23/06 A2999 RMK A01 T02310060  RH  033%=      5-min Rain = 0
KES1 262306Z 19013KT 23/06 A2999 RMK A01 T02310062  RH  033%=      5-min Rain = 0
KES1 262307Z 18011G16KT 23/07 A2999 RMK A01 T02320065  RH  034%=      5-min Rain = 0
KES1 262308Z 17012KT 23/07 A2999 RMK A01 T02330066  RH  034%=      5-min Rain = 0
KES1 262309Z 17010KT 23/07 A2999 RMK A01 T02340069  RH  035%=      5-min Rain = 0
KES1 262310Z 16013G18KT 23/07 A2999 RMK A01 T02340067  RH  034%=      5-min Rain = 0
KES1 262311Z 16013KT 23/07 A2999 RMK A01 T02340066  RH  034%=      5-min Rain = 0
KES1 262312Z 18015G20KT 23/07 A2999 RMK A01 T02340066  RH  034%=      5-min Rain = 0
KES1 262313Z 18017KT 23/06 A2999 RMK A01 T02340063  RH  033%=      5-min Rain = 0
KES1 262314Z 16015KT 23/06 A2999 RMK A01 T02330059  RH  033%=      5-min Rain = 0
KES1 262315Z 17011G16KT 23/06 A2999 RMK A01 T02310062  RH  034%=      5-min Rain = 0
KES1 262316Z 17013G19KT 23/06 A2999 RMK A01 T02320064  RH  034%=      5-min Rain = 0
KES1 262317Z 17013G20KT 23/06 A2999 RMK A01 T02330061  RH  033%=      5-min Rain = 0
KES1 262318Z 17014G19KT 23/06 A2999 RMK A01 T02330058  RH  032%=      5-min Rain = 0
KES1 262319Z 17014G20KT 23/06 A2999 RMK A01 T02330060  RH  033%=      5-min Rain = 0
KES1 262320Z 18014G20KT 23/06 A2999 RMK A01 T02330057  RH  032%=      5-min Rain = 0
KES1 262321Z 18016KT 23/05 A2999 RMK A01 T02320053  RH  031%=      5-min Rain = 0
KES1 262322Z 18015G21KT 23/06 A2999 RMK A01 T02310056  RH  032%=      5-min Rain = 0
KES1 262323Z 17014KT 23/06 A2999 RMK A01 T02310055  RH  032%=      5-min Rain = 0
KES1 262324Z 17014KT 23/05 A2999 RMK A01 T02310053  RH  032%=      5-min Rain = 0
KES1 262325Z 18012KT 23/06 A2999 RMK A01 T02300056  RH  032%=      5-min Rain = 0
KES1 262326Z 16010KT 23/06 A2999 RMK A01 T02310061  RH  033%=      5-min Rain = 0
KES1 262327Z 17012KT 23/06 A2999 RMK A01 T02310059  RH  033%=      5-min Rain = 0
KES1 262328Z 17011KT 23/06 A2999 RMK A01 T02320060  RH  033%=      5-min Rain = 0
KES1 262329Z 18012KT 23/06 A2999 RMK A01 T02320062  RH  034%=      5-min Rain = 0
KES1 262330Z 18013G19KT 23/06 A2999 RMK A01 T02320060  RH  033%=      5-min Rain = 0
KES1 262331Z 18015KT 23/06 A2999 RMK A01 T02320055  RH  032%=      5-min Rain = 0
KES1 262332Z 18012KT 23/06 A2999 RMK A01 T02320055  RH  032%=      5-min Rain = 0
KES1 262333Z 18011G18KT 23/06 A2999 RMK A01 T02320057  RH  032%=      5-min Rain = 0
KES1 262334Z 18012G19KT 23/06 A2999 RMK A01 T02310055  RH  032%=      5-min Rain = 0
KES1 262335Z 18014KT 23/06 A2999 RMK A01 T02310055  RH  032%=      5-min Rain = 0
KES1 262336Z 18011G16KT 23/05 A2999 RMK A01 T02300054  RH  032%=      5-min Rain = 0
KES1 262337Z 18013KT 23/06 A2999 RMK A01 T02300056  RH  032%=      5-min Rain = 0
KES1 262338Z 18014KT 23/05 A2999 RMK A01 T02300054  RH  032%=      5-min Rain = 0
KES1 262339Z 19016KT 23/06 A2999 RMK A01 T02300055  RH  032%=      5-min Rain = 0
KES1 262340Z 18015G20KT 23/05 A2999 RMK A01 T02300054  RH  032%=      5-min Rain = 0
KES1 262341Z 17012KT 23/06 A2999 RMK A01 T02300057  RH  033%=      5-min Rain = 0
KES1 262342Z 18010KT 23/06 A2999 RMK A01 T02300058  RH  033%=      5-min Rain = 0
KES1 262343Z 19010KT 23/06 A2999 RMK A01 T02300059  RH  033%=      5-min Rain = 0
KES1 262344Z 18013KT 23/06 A2999 RMK A01 T02310056  RH  032%=      5-min Rain = 0
KES1 262345Z 17014KT 23/05 A2999 RMK A01 T02310054  RH  032%=      5-min Rain = 0
KES1 262346Z 18013G19KT 23/05 A2999 RMK A01 T02300054  RH  032%=      5-min Rain = 0
KES1 262347Z 18013G19KT 23/05 A2999 RMK A01 T02290052  RH  032%=      5-min Rain = 0
KES1 262348Z 18011KT 23/06 A2999 RMK A01 T02280056  RH  033%=      5-min Rain = 0
KES1 262349Z 18012KT 23/06 A2999 RMK A01 T02280058  RH  033%=      5-min Rain = 0
KES1 262350Z 18011KT 23/06 A2999 RMK A01 T02280059  RH  033%=      5-min Rain = 0
KES1 262351Z 18010KT 23/06 A2999 RMK A01 T02280060  RH  034%=      5-min Rain = 0
KES1 262352Z 17010KT 23/06 A2999 RMK A01 T02280063  RH  034%=      5-min Rain = 0
KES1 262353Z 18010KT 23/07 A2999 RMK A01 T02280065  RH  035%=      5-min Rain = 0
KES1 262354Z 18012G17KT 23/06 A2999 RMK A01 T02280063  RH  034%=      5-min Rain = 0
KES1 262355Z 17013KT 23/06 A2999 RMK A01 T02280060  RH  034%=      5-min Rain = 0
KES1 262356Z 18012KT 23/06 A2998 RMK A01 T02280060  RH  034%=      5-min Rain = 0
KES1 262357Z 17011KT 23/06 A2998 RMK A01 T02280064  RH  035%=      5-min Rain = 0
KES1 262358Z 16010G17KT 23/06 A2998 RMK A01 T02270064  RH  035%=      5-min Rain = 0
KES1 262359Z 17009G14KT 23/07 A2998 RMK A01 T02270065  RH  035%=      5-min Rain = 0
KES1 270000Z 16009KT 23/07 A2998 RMK A01 T02270066  RH  035%=      5-min Rain = 0
KES1 270001Z 17013KT 23/06 A2998 RMK A01 T02270062  RH  034%=      5-min Rain = 0
KES1 270002Z 17008KT 23/06 A2998 RMK A01 T02270064  RH  035%=      5-min Rain = 0
KES1 270003Z 16007G15KT 23/07 A2998 RMK A01 T02270067  RH  036%=      5-min Rain = 0
KES1 270004Z 17012KT 23/06 A2998 RMK A01 T02270062  RH  035%=      5-min Rain = 0
KES1 270005Z 17013KT 23/06 A2998 RMK A01 T02270059  RH  034%=      5-min Rain = 0
KES1 270006Z 18012G17KT 23/06 A2998 RMK A01 T02260058  RH  033%=      5-min Rain = 0
KES1 270007Z 18011KT 23/06 A2998 RMK A01 T02260058  RH  034%=      5-min Rain = 0
KES1 270008Z 16011KT 23/06 A2998 RMK A01 T02260061  RH  034%=      5-min Rain = 0
KES1 270009Z 16009KT 23/06 A2998 RMK A01 T02260062  RH  035%=      5-min Rain = 0
KES1 270010Z 18010KT 23/06 A2998 RMK A01 T02250062  RH  035%=      5-min Rain = 0
KES1 270011Z 17009KT 23/06 A2998 RMK A01 T02250063  RH  035%=      5-min Rain = 0
KES1 270012Z 17012G17KT 23/07 A2998 RMK A01 T02250065  RH  035%=      5-min Rain = 0
KES1 270013Z 17011KT 22/06 A2998 RMK A01 T02240061  RH  035%=      5-min Rain = 0
KES1 270014Z 16011KT 22/06 A2998 RMK A01 T02240061  RH  035%=      5-min Rain = 0
KES1 270015Z 17010KT 22/06 A2998 RMK A01 T02240062  RH  035%=      5-min Rain = 0
KES1 270016Z 17010KT 22/06 A2998 RMK A01 T02230062  RH  035%=      5-min Rain = 0
KES1 270017Z 16011KT 22/06 A2998 RMK A01 T02230060  RH  035%=      5-min Rain = 0
KES1 270018Z 17008KT 22/06 A2998 RMK A01 T02230062  RH  035%=      5-min Rain = 0
KES1 270019Z 16007KT 22/06 A2998 RMK A01 T02230063  RH  036%=      5-min Rain = 0
KES1 270020Z 16010KT 22/06 A2998 RMK A01 T02220061  RH  035%=      5-min Rain = 0
KES1 270021Z 16010KT 22/06 A2998 RMK A01 T02220060  RH  035%=      5-min Rain = 0
KES1 270022Z 17011G18KT 22/06 A2998 RMK A01 T02220060  RH  035%=      5-min Rain = 0
KES1 270023Z 16013KT 22/05 A2998 RMK A01 T02220054  RH  034%=      5-min Rain = 0
KES1 270024Z 17009KT 22/05 A2998 RMK A01 T02210054  RH  034%=      5-min Rain = 0
KES1 270025Z 17007KT 22/06 A2998 RMK A01 T02210058  RH  035%=      5-min Rain = 0
KES1 270026Z 16007KT 22/06 A2998 RMK A01 T02210060  RH  035%=      5-min Rain = 0
KES1 270027Z 17008G13KT 22/06 A2998 RMK A01 T02200059  RH  035%=      5-min Rain = 0
KES1 270028Z 17011KT 22/06 A2998 RMK A01 T02200058  RH  035%=      5-min Rain = 0
KES1 270029Z 16012KT 22/05 A2998 RMK A01 T02200052  RH  034%=      5-min Rain = 0
KES1 270030Z 17009KT 22/05 A2998 RMK A01 T02190051  RH  033%=      5-min Rain = 0
KES1 270031Z 17012KT 22/05 A2998 RMK A01 T02200051  RH  033%=      5-min Rain = 0
KES1 270032Z 17013KT 22/05 A2998 RMK A01 T02190048  RH  033%=      5-min Rain = 0
KES1 270033Z 17011KT 22/05 A2998 RMK A01 T02190050  RH  033%=      5-min Rain = 0
KES1 270034Z 16011KT 22/05 A2998 RMK A01 T02190049  RH  033%=      5-min Rain = 0
KES1 270035Z 16010KT 22/05 A2998 RMK A01 T02180049  RH  033%=      5-min Rain = 0
KES1 270036Z 16009G14KT 22/05 A2998 RMK A01 T02180049  RH  033%=      5-min Rain = 0
KES1 270037Z 17010KT 22/05 A2998 RMK A01 T02170047  RH  033%=      5-min Rain = 0
KES1 270038Z 16010KT 22/05 A2998 RMK A01 T02170048  RH  033%=      5-min Rain = 0
KES1 270039Z 16009KT 22/05 A2998 RMK A01 T02170048  RH  033%=      5-min Rain = 0
KES1 270040Z 16010KT 22/05 A2998 RMK A01 T02160048  RH  033%=      5-min Rain = 0
KES1 270041Z 16011KT 22/05 A2998 RMK A01 T02160047  RH  033%=      5-min Rain = 0
KES1 270042Z 16010KT 22/05 A2998 RMK A01 T02160049  RH  034%=      5-min Rain = 0
KES1 270043Z 16008KT 22/05 A2998 RMK A01 T02160049  RH  034%=      5-min Rain = 0
KES1 270044Z 15007KT 22/05 A2998 RMK A01 T02150051  RH  034%=      5-min Rain = 0
KES1 270045Z 16007KT 21/05 A2998 RMK A01 T02130054  RH  035%=      5-min Rain = 0
KES1 270046Z 15008KT 21/05 A2998 RMK A01 T02120054  RH  036%=      5-min Rain = 0
KES1 270047Z 15008KT 21/05 A2998 RMK A01 T02110052  RH  035%=      5-min Rain = 0
KES1 270048Z 16007KT 21/05 A2998 RMK A01 T02100053  RH  036%=      5-min Rain = 0
KES1 270049Z 16006KT 21/05 A2998 RMK A01 T02100053  RH  036%=      5-min Rain = 0
KES1 270050Z 16005KT 21/06 A2998 RMK A01 T02090055  RH  036%=      5-min Rain = 0
KES1 270051Z 16006KT 21/06 A2998 RMK A01 T02080056  RH  037%=      5-min Rain = 0
KES1 270052Z 16006KT 21/06 A2997 RMK A01 T02070055  RH  037%=      5-min Rain = 0
KES1 270053Z 16006KT 21/06 A2997 RMK A01 T02070057  RH  038%=      5-min Rain = 0
KES1 270054Z 16006KT 21/06 A2997 RMK A01 T02060057  RH  038%=      5-min Rain = 0
KES1 270055Z 16006KT 21/06 A2997 RMK A01 T02060057  RH  038%=      5-min Rain = 0
KES1 270056Z 15007KT 21/06 A2997 RMK A01 T02050057  RH  038%=      5-min Rain = 0
KES1 270057Z 16007KT 21/06 A2997 RMK A01 T02050056  RH  038%=      5-min Rain = 0
KES1 270058Z 16006KT 20/06 A2997 RMK A01 T02040057  RH  038%=      5-min Rain = 0
KES1 270059Z 15008KT 20/06 A2997 RMK A01 T02030056  RH  038%=      5-min Rain = 0
KES1 270100Z 16007KT 20/06 A2997 RMK A01 T02030056  RH  038%=      5-min Rain = 0
KES1 270101Z 16006KT 20/06 A2997 RMK A01 T02030058  RH  039%=      5-min Rain = 0
KES1 270102Z 16006KT 20/06 A2997 RMK A01 T02020058  RH  039%=      5-min Rain = 0
KES1 270103Z 16007KT 20/06 A2997 RMK A01 T02010058  RH  039%=      5-min Rain = 0
KES1 270104Z 16006KT 20/06 A2997 RMK A01 T02010058  RH  039%=      5-min Rain = 0
KES1 270105Z 16007KT 20/06 A2997 RMK A01 T02000058  RH  039%=      5-min Rain = 0
KES1 270106Z 16007KT 20/06 A2997 RMK A01 T02000059  RH  040%=      5-min Rain = 0
KES1 270107Z 16007KT 20/06 A2997 RMK A01 T01990061  RH  040%=      5-min Rain = 0
KES1 270108Z 15006KT 20/06 A2997 RMK A01 T01980061  RH  041%=      5-min Rain = 0
KES1 270109Z 16007KT 20/06 A2997 RMK A01 T01970061  RH  041%=      5-min Rain = 0
KES1 270110Z 16007KT 20/06 A2996 RMK A01 T01960061  RH  041%=      5-min Rain = 0
KES1 270111Z 16007KT 20/06 A2996 RMK A01 T01950061  RH  042%=      5-min Rain = 0
KES1 270112Z 16007KT 20/06 A2996 RMK A01 T01950062  RH  042%=      5-min Rain = 0
KES1 270113Z 15007KT 19/06 A2996 RMK A01 T01940062  RH  042%=      5-min Rain = 0
KES1 270114Z 15007KT 19/06 A2996 RMK A01 T01930064  RH  043%=      5-min Rain = 0
KES1 270115Z 15008KT 19/06 A2996 RMK A01 T01930064  RH  043%=      5-min Rain = 0
KES1 270116Z 15008KT 19/06 A2996 RMK A01 T01920064  RH  043%=      5-min Rain = 0
KES1 270117Z 15008KT 19/06 A2996 RMK A01 T01910064  RH  043%=      5-min Rain = 0
KES1 270118Z 15007KT 19/06 A2996 RMK A01 T01900064  RH  044%=      5-min Rain = 0
KES1 270119Z 15007KT 19/07 A2996 RMK A01 T01900065  RH  044%=      5-min Rain = 0
KES1 270120Z 15006KT 19/07 A2996 RMK A01 T01900065  RH  044%=      5-min Rain = 0
KES1 270121Z 15007KT 19/07 A2996 RMK A01 T01890065  RH  044%=      5-min Rain = 0
KES1 270122Z 15007KT 19/07 A2995 RMK A01 T01890065  RH  044%=      5-min Rain = 0
KES1 270123Z 15008KT 19/07 A2995 RMK A01 T01890066  RH  044%=      5-min Rain = 0
KES1 270124Z 15007KT 19/07 A2995 RMK A01 T01890066  RH  044%=      5-min Rain = 0
KES1 270125Z 15007KT 19/07 A2995 RMK A01 T01890067  RH  045%=      5-min Rain = 0
KES1 270126Z 14007KT 19/07 A2995 RMK A01 T01890067  RH  045%=      5-min Rain = 0
KES1 270127Z 14006KT 19/07 A2995 RMK A01 T01890068  RH  045%=      5-min Rain = 0
KES1 270128Z 15006KT 19/07 A2995 RMK A01 T01890069  RH  045%=      5-min Rain = 0
KES1 270129Z 15006KT 19/07 A2995 RMK A01 T01880069  RH  046%=      5-min Rain = 0
KES1 270130Z 14006KT 19/07 A2995 RMK A01 T01880070  RH  046%=      5-min Rain = 0
KES1 270131Z 14006KT 19/07 A2995 RMK A01 T01880070  RH  046%=      5-min Rain = 0
KES1 270132Z 14006KT 19/07 A2995 RMK A01 T01870071  RH  047%=      5-min Rain = 0
KES1 270133Z 15006KT 19/07 A2994 RMK A01 T01860071  RH  047%=      5-min Rain = 0
KES1 270134Z 15007KT 19/07 A2994 RMK A01 T01860071  RH  047%=      5-min Rain = 0
KES1 270135Z 14006KT 19/07 A2994 RMK A01 T01860072  RH  047%=      5-min Rain = 0
KES1 270136Z 15006KT 19/07 A2994 RMK A01 T01860072  RH  048%=      5-min Rain = 0
KES1 270137Z 15006KT 19/07 A2994 RMK A01 T01850072  RH  048%=      5-min Rain = 0
KES1 270138Z 15007KT 19/07 A2994 RMK A01 T01850073  RH  048%=      5-min Rain = 0
KES1 270139Z 15007KT 18/07 A2994 RMK A01 T01840073  RH  048%=      5-min Rain = 0
KES1 270140Z 15008KT 18/07 A2994 RMK A01 T01840074  RH  049%=      5-min Rain = 0
KES1 270141Z 15009KT 18/07 A2994 RMK A01 T01830073  RH  049%=      5-min Rain = 0
KES1 270142Z 15008KT 18/07 A2994 RMK A01 T01830073  RH  049%=      5-min Rain = 0
KES1 270143Z 15008KT 18/07 A2994 RMK A01 T01830074  RH  049%=      5-min Rain = 0
KES1 270144Z 15008KT 18/08 A2994 RMK A01 T01820075  RH  049%=      5-min Rain = 0
KES1 270145Z 15008KT 18/08 A2994 RMK A01 T01820075  RH  050%=      5-min Rain = 0
KES1 270146Z 15008KT 18/08 A2994 RMK A01 T01810075  RH  050%=      5-min Rain = 0
KES1 270147Z 15007KT 18/08 A2994 RMK A01 T01810075  RH  050%=      5-min Rain = 0
KES1 270148Z 15007KT 18/08 A2994 RMK A01 T01810076  RH  050%=      5-min Rain = 0
KES1 270149Z 15007KT 18/08 A2994 RMK A01 T01800076  RH  051%=      5-min Rain = 0
KES1 270150Z 15006KT 18/08 A2994 RMK A01 T01790076  RH  051%=      5-min Rain = 0
KES1 270151Z 14006KT 18/08 A2994 RMK A01 T01790076  RH  051%=      5-min Rain = 0
KES1 270152Z 14006KT 18/08 A2994 RMK A01 T01780076  RH  051%=      5-min Rain = 0
KES1 270153Z 14005KT 18/08 A2994 RMK A01 T01780077  RH  051%=      5-min Rain = 0
KES1 270154Z 14005KT 18/08 A2994 RMK A01 T01780077  RH  052%=      5-min Rain = 0
KES1 270155Z 14004KT 18/08 A2994 RMK A01 T01770077  RH  052%=      5-min Rain = 0
KES1 270156Z 14004KT 18/08 A2995 RMK A01 T01770077  RH  052%=      5-min Rain = 0
KES1 270157Z 14004KT 18/08 A2995 RMK A01 T01770077  RH  052%=      5-min Rain = 0
KES1 270158Z 14004KT 18/08 A2995 RMK A01 T01760077  RH  052%=      5-min Rain = 0
KES1 270159Z 14004KT 18/08 A2995 RMK A01 T01760077  RH  052%=      5-min Rain = 0
KES1 270200Z 13004KT 18/08 A2995 RMK A01 T01760077  RH  052%=      5-min Rain = 0
KES1 270201Z 13004KT 18/08 A2995 RMK A01 T01760077  RH  052%=      5-min Rain = 0
KES1 270202Z 14004KT 18/08 A2995 RMK A01 T01750078  RH  053%=      5-min Rain = 0
KES1 270203Z 13003KT 18/08 A2995 RMK A01 T01750078  RH  053%=      5-min Rain = 0
KES1 270204Z 14004KT 17/08 A2995 RMK A01 T01740077  RH  053%=      5-min Rain = 0
KES1 270205Z 14003KT 17/08 A2995 RMK A01 T01740078  RH  053%=      5-min Rain = 0
KES1 270206Z 14003KT 17/08 A2995 RMK A01 T01740078  RH  053%=      5-min Rain = 0
KES1 270207Z 14003KT 17/08 A2995 RMK A01 T01730077  RH  053%=      5-min Rain = 0
KES1 270208Z 14003KT 17/08 A2995 RMK A01 T01730078  RH  053%=      5-min Rain = 0
KES1 270209Z 14005KT 17/08 A2995 RMK A01 T01730078  RH  054%=      5-min Rain = 0
KES1 270210Z 14005KT 17/08 A2995 RMK A01 T01720078  RH  054%=      5-min Rain = 0
KES1 270211Z 13006KT 17/08 A2995 RMK A01 T01720079  RH  054%=      5-min Rain = 0
KES1 270212Z 14005KT 17/08 A2995 RMK A01 T01710080  RH  055%=      5-min Rain = 0
KES1 270213Z 14005KT 17/08 A2995 RMK A01 T01700080  RH  055%=      5-min Rain = 0
KES1 270214Z 15005KT 17/08 A2995 RMK A01 T01690080  RH  056%=      5-min Rain = 0
KES1 270215Z 15006KT 17/08 A2995 RMK A01 T01690079  RH  056%=      5-min Rain = 0
KES1 270216Z 15006KT 17/08 A2995 RMK A01 T01690079  RH  056%=      5-min Rain = 0
KES1 270217Z 16006KT 17/08 A2995 RMK A01 T01690080  RH  056%=      5-min Rain = 0
KES1 270218Z 15006KT 17/08 A2995 RMK A01 T01690079  RH  056%=      5-min Rain = 0
KES1 270219Z 16006KT 17/08 A2995 RMK A01 T01690079  RH  056%=      5-min Rain = 0
KES1 270220Z 16006KT 17/08 A2995 RMK A01 T01690079  RH  056%=      5-min Rain = 0
KES1 270221Z 16007KT 17/08 A2996 RMK A01 T01690079  RH  056%=      5-min Rain = 0
KES1 270222Z 16006KT 17/08 A2996 RMK A01 T01690078  RH  055%=      5-min Rain = 0
KES1 270223Z 16006KT 17/08 A2996 RMK A01 T01700081  RH  056%=      5-min Rain = 0
KES1 270224Z 16005KT 17/08 A2996 RMK A01 T01700080  RH  055%=      5-min Rain = 0
KES1 270225Z 16005KT 17/08 A2996 RMK A01 T01690079  RH  055%=      5-min Rain = 0
KES1 270226Z 16006KT 17/08 A2996 RMK A01 T01690080  RH  056%=      5-min Rain = 0
KES1 270227Z 16006KT 17/08 A2996 RMK A01 T01690078  RH  055%=      5-min Rain = 0
KES1 270228Z 17006KT 17/08 A2996 RMK A01 T01700078  RH  055%=      5-min Rain = 0
KES1 270229Z 16007KT 17/08 A2996 RMK A01 T01700078  RH  055%=      5-min Rain = 0
KES1 270230Z 16007KT 17/08 A2996 RMK A01 T01700078  RH  055%=      5-min Rain = 0
KES1 270231Z 16006KT 17/08 A2996 RMK A01 T01700079  RH  055%=      5-min Rain = 0
KES1 270232Z 16007KT 17/08 A2996 RMK A01 T01700079  RH  055%=      5-min Rain = 0
KES1 270233Z 16009KT 17/08 A2996 RMK A01 T01700078  RH  055%=      5-min Rain = 0
KES1 270234Z 16007KT 17/08 A2996 RMK A01 T01700078  RH  054%=      5-min Rain = 0
KES1 270235Z 16007KT 17/08 A2996 RMK A01 T01710077  RH  054%=      5-min Rain = 0
KES1 270236Z 16008KT 17/08 A2996 RMK A01 T01710078  RH  054%=      5-min Rain = 0
KES1 270237Z 16007KT 17/08 A2996 RMK A01 T01710077  RH  054%=      5-min Rain = 0
KES1 270238Z 16007KT 17/08 A2996 RMK A01 T01710078  RH  054%=      5-min Rain = 0
KES1 270239Z 16008KT 17/08 A2996 RMK A01 T01710078  RH  054%=      5-min Rain = 0
KES1 270240Z 16006KT 17/08 A2996 RMK A01 T01710077  RH  054%=      5-min Rain = 0
KES1 270241Z 15007KT 17/08 A2996 RMK A01 T01700078  RH  054%=      5-min Rain = 0
KES1 270242Z 16007KT 17/08 A2996 RMK A01 T01700079  RH  055%=      5-min Rain = 0
KES1 270243Z 15008KT 17/08 A2996 RMK A01 T01690078  RH  055%=      5-min Rain = 0
KES1 270244Z 16008KT 17/08 A2995 RMK A01 T01690079  RH  055%=      5-min Rain = 0
KES1 270245Z 15008KT 17/08 A2995 RMK A01 T01690079  RH  055%=      5-min Rain = 0
KES1 270246Z 15008KT 17/08 A2995 RMK A01 T01690078  RH  055%=      5-min Rain = 0
KES1 270247Z 16008KT 17/08 A2995 RMK A01 T01690079  RH  055%=      5-min Rain = 0
KES1 270248Z 15008KT 17/08 A2995 RMK A01 T01690078  RH  055%=      5-min Rain = 0
KES1 270249Z 15008KT 17/08 A2995 RMK A01 T01690078  RH  055%=      5-min Rain = 0
KES1 270250Z 16008KT 17/08 A2995 RMK A01 T01690077  RH  055%=      5-min Rain = 0
KES1 270251Z 16008KT 17/08 A2995 RMK A01 T01690077  RH  055%=      5-min Rain = 0
KES1 270252Z 16009KT 17/08 A2995 RMK A01 T01690078  RH  055%=      5-min Rain = 0
KES1 270253Z 16009KT 17/08 A2995 RMK A01 T01690077  RH  054%=      5-min Rain = 0
KES1 270254Z 16008KT 17/08 A2995 RMK A01 T01700077  RH  054%=      5-min Rain = 0
KES1 270255Z 15008KT 17/08 A2995 RMK A01 T01700077  RH  054%=      5-min Rain = 0
KES1 270256Z 16008KT 17/08 A2995 RMK A01 T01700077  RH  054%=      5-min Rain = 0
KES1 270257Z 16009KT 17/08 A2995 RMK A01 T01700076  RH  054%=      5-min Rain = 0
KES1 270258Z 16007KT 17/08 A2995 RMK A01 T01700077  RH  054%=      5-min Rain = 0
KES1 270259Z 16008KT 17/08 A2995 RMK A01 T01700077  RH  054%=      5-min Rain = 0
KES1 270300Z 16008G13KT 17/08 A2995 RMK A01 T01700078  RH  055%=      5-min Rain = 0
KES1 270301Z 16008KT 17/08 A2995 RMK A01 T01690077  RH  055%=      5-min Rain = 0
KES1 270302Z 15008KT 17/08 A2995 RMK A01 T01690078  RH  055%=      5-min Rain = 0
KES1 270303Z 15009KT 17/08 A2995 RMK A01 T01690078  RH  055%=      5-min Rain = 0
KES1 270304Z 16009KT 17/08 A2995 RMK A01 T01690077  RH  055%=      5-min Rain = 0
KES1 270305Z 16008KT 17/08 A2995 RMK A01 T01690077  RH  055%=      5-min Rain = 0
KES1 270306Z 16008KT 17/08 A2995 RMK A01 T01690078  RH  055%=      5-min Rain = 0
KES1 270307Z 16008KT 17/08 A2995 RMK A01 T01690078  RH  055%=      5-min Rain = 0
KES1 270308Z 16008KT 17/08 A2995 RMK A01 T01680078  RH  055%=      5-min Rain = 0
KES1 270309Z 16008KT 17/08 A2995 RMK A01 T01680079  RH  056%=      5-min Rain = 0
KES1 270310Z 16008KT 17/08 A2995 RMK A01 T01680078  RH  056%=      5-min Rain = 0
KES1 270311Z 16008KT 17/08 A2995 RMK A01 T01670078  RH  056%=      5-min Rain = 0
KES1 270312Z 16007KT 17/08 A2995 RMK A01 T01670078  RH  056%=      5-min Rain = 0
KES1 270313Z 15007KT 17/08 A2995 RMK A01 T01670078  RH  056%=      5-min Rain = 0
KES1 270314Z 16007KT 17/08 A2996 RMK A01 T01680079  RH  056%=      5-min Rain = 0
KES1 270315Z 16006KT 17/08 A2996 RMK A01 T01670079  RH  056%=      5-min Rain = 0
KES1 270316Z 16007KT 17/08 A2996 RMK A01 T01670080  RH  056%=      5-min Rain = 0
KES1 270317Z 16007KT 17/08 A2996 RMK A01 T01670080  RH  056%=      5-min Rain = 0
KES1 270318Z 16007KT 17/08 A2996 RMK A01 T01670080  RH  056%=      5-min Rain = 0
KES1 270319Z 16006KT 17/08 A2996 RMK A01 T01670080  RH  057%=      5-min Rain = 0
KES1 270320Z 16007KT 17/08 A2996 RMK A01 T01660081  RH  057%=      5-min Rain = 0
KES1 270321Z 17007KT 17/08 A2996 RMK A01 T01660080  RH  057%=      5-min Rain = 0
KES1 270322Z 17006KT 17/08 A2996 RMK A01 T01660080  RH  057%=      5-min Rain = 0
KES1 270323Z 16006KT 17/08 A2996 RMK A01 T01660081  RH  057%=      5-min Rain = 0
KES1 270324Z 16006KT 17/08 A2996 RMK A01 T01660081  RH  057%=      5-min Rain = 0
KES1 270325Z 16006KT 17/08 A2996 RMK A01 T01650082  RH  058%=      5-min Rain = 0
KES1 270326Z 16007KT 17/08 A2996 RMK A01 T01650082  RH  058%=      5-min Rain = 0
KES1 270327Z 16007KT 16/08 A2996 RMK A01 T01640081  RH  058%=      5-min Rain = 0
KES1 270328Z 16007KT 17/08 A2996 RMK A01 T01650082  RH  058%=      5-min Rain = 0
KES1 270329Z 16006KT 16/08 A2996 RMK A01 T01640083  RH  058%=      5-min Rain = 0
KES1 270330Z 16006KT 16/08 A2996 RMK A01 T01640082  RH  058%=      5-min Rain = 0
KES1 270331Z 16007KT 16/08 A2996 RMK A01 T01640083  RH  059%=      5-min Rain = 0
KES1 270332Z 16007KT 16/08 A2996 RMK A01 T01630083  RH  059%=      5-min Rain = 0
KES1 270333Z 15006KT 16/08 A2996 RMK A01 T01630083  RH  059%=      5-min Rain = 0
KES1 270334Z 16006KT 16/08 A2996 RMK A01 T01630083  RH  059%=      5-min Rain = 0
KES1 270335Z 15005KT 16/08 A2996 RMK A01 T01620084  RH  060%=      5-min Rain = 0
KES1 270336Z 15006KT 16/08 A2996 RMK A01 T01610084  RH  060%=      5-min Rain = 0
KES1 270337Z 15005KT 16/08 A2996 RMK A01 T01610083  RH  060%=      5-min Rain = 0
KES1 270338Z 15004KT 16/08 A2996 RMK A01 T01610084  RH  060%=      5-min Rain = 0
KES1 270339Z 16004KT 16/08 A2996 RMK A01 T01610083  RH  060%=      5-min Rain = 0
KES1 270340Z 16004KT 16/08 A2997 RMK A01 T01600082  RH  060%=      5-min Rain = 0
KES1 270341Z 16002KT 16/08 A2997 RMK A01 T01610082  RH  060%=      5-min Rain = 0
KES1 270342Z 20001KT 16/08 A2998 RMK A01 T01610082  RH  060%=      5-min Rain = 0
KES1 270343Z 24002KT 16/08 A2998 RMK A01 T01610082  RH  059%=      5-min Rain = 0
KES1 270344Z 27004KT 16/08 A2999 RMK A01 T01620081  RH  059%=      5-min Rain = 0
KES1 270345Z 28005KT 16/08 A30 RMK A01 T01630083  RH  059%=      5-min Rain = 0
KES1 270346Z 28006KT 16/09 A30 RMK A01 T01620085  RH  060%=      5-min Rain = 0
KES1 270347Z 29006KT 16/09 A30 RMK A01 T01610085  RH  060%=      5-min Rain = 0
KES1 270348Z 27005KT 16/09 A30 RMK A01 T01600085  RH  061%=      5-min Rain = 0
KES1 270349Z 28004KT 16/08 A30 RMK A01 T01590084  RH  061%=      5-min Rain = 0
KES1 270350Z 27003KT 16/08 A30 RMK A01 T01570084  RH  062%=      5-min Rain = 0
KES1 270351Z 27002KT 16/08 A30 RMK A01 T01560084  RH  062%=      5-min Rain = 0
KES1 270352Z 26003KT 16/08 A30 RMK A01 T01560084  RH  062%=      5-min Rain = 0
KES1 270353Z 26003KT 16/08 A30 RMK A01 T01550084  RH  062%=      5-min Rain = 0
KES1 270354Z 26003KT 16/08 A2999 RMK A01 T01550084  RH  062%=      5-min Rain = 0
KES1 270355Z 25003KT 16/09 A2999 RMK A01 T01550085  RH  063%=      5-min Rain = 0
KES1 270356Z 24003KT 15/08 A2999 RMK A01 T01540084  RH  063%=      5-min Rain = 0
KES1 270357Z 23002KT 15/08 A2999 RMK A01 T01540083  RH  062%=      5-min Rain = 0
KES1 270358Z 22003KT 16/08 A2999 RMK A01 T01550084  RH  063%=      5-min Rain = 0
KES1 270359Z 21003KT 16/08 A2999 RMK A01 T01550084  RH  063%=      5-min Rain = 0
KES1 270400Z 21003KT 16/08 A2999 RMK A01 T01550084  RH  063%=      5-min Rain = 0
KES1 270401Z 21004KT 16/08 A2999 RMK A01 T01550084  RH  063%=      5-min Rain = 0
KES1 270402Z 21004KT 16/08 A2999 RMK A01 T01550083  RH  062%=      5-min Rain = 0
KES1 270403Z 20004KT 16/08 A2999 RMK A01 T01560083  RH  062%=      5-min Rain = 0
KES1 270404Z 20004KT 16/08 A2999 RMK A01 T01560083  RH  062%=      5-min Rain = 0
KES1 270405Z 20005KT 16/08 A2999 RMK A01 T01570084  RH  062%=      5-min Rain = 0
KES1 270406Z 20005KT 16/08 A2999 RMK A01 T01570084  RH  062%=      5-min Rain = 0
KES1 270407Z 19005KT 16/09 A2999 RMK A01 T01570085  RH  062%=      5-min Rain = 0
KES1 270408Z 19005KT 16/09 A2998 RMK A01 T01570085  RH  062%=      5-min Rain = 0
KES1 270409Z 19005KT 16/09 A2998 RMK A01 T01570085  RH  062%=      5-min Rain = 0
KES1 270410Z 19006KT 16/08 A2998 RMK A01 T01570084  RH  062%=      5-min Rain = 0
KES1 270411Z 20007KT 16/08 A2998 RMK A01 T01570084  RH  062%=      5-min Rain = 0
KES1 270412Z 20007KT 16/08 A2998 RMK A01 T01580084  RH  061%=      5-min Rain = 0
KES1 270413Z 20006KT 16/08 A2998 RMK A01 T01580084  RH  061%=      5-min Rain = 0
KES1 270414Z 20006KT 16/09 A2998 RMK A01 T01580085  RH  062%=      5-min Rain = 0
KES1 270415Z 20006KT 16/09 A2998 RMK A01 T01590085  RH  061%=      5-min Rain = 0
KES1 270416Z 20007KT 16/09 A2998 RMK A01 T01590085  RH  061%=      5-min Rain = 0
KES1 270417Z 20006KT 16/08 A2998 RMK A01 T01590084  RH  061%=      5-min Rain = 0
KES1 270418Z 19007KT 16/08 A2998 RMK A01 T01590084  RH  061%=      5-min Rain = 0
KES1 270419Z 20007KT 16/09 A2998 RMK A01 T01580085  RH  062%=      5-min Rain = 0
KES1 270420Z 20007KT 16/09 A2998 RMK A01 T01590085  RH  061%=      5-min Rain = 0
KES1 270421Z 20007KT 16/09 A2998 RMK A01 T01590085  RH  061%=      5-min Rain = 0
KES1 270422Z 20007KT 16/09 A2998 RMK A01 T01600085  RH  061%=      5-min Rain = 0
KES1 270423Z 20008KT 16/09 A2998 RMK A01 T01600085  RH  061%=      5-min Rain = 0
KES1 270424Z 20008KT 16/09 A2998 RMK A01 T01610085  RH  061%=      5-min Rain = 0
KES1 270425Z 20008KT 16/08 A2998 RMK A01 T01620084  RH  060%=      5-min Rain = 0
KES1 270426Z 20007KT 16/09 A2998 RMK A01 T01630085  RH  060%=      5-min Rain = 0
KES1 270427Z 19008KT 16/09 A2998 RMK A01 T01630085  RH  060%=      5-min Rain = 0
KES1 270428Z 19010KT 16/09 A2998 RMK A01 T01630085  RH  060%=      5-min Rain = 0
KES1 270429Z 19009KT 16/09 A2998 RMK A01 T01640086  RH  060%=      5-min Rain = 0
KES1 270430Z 19010KT 17/09 A2998 RMK A01 T01650086  RH  060%=      5-min Rain = 0
KES1 270431Z 19009KT 17/09 A2998 RMK A01 T01650086  RH  060%=      5-min Rain = 0
KES1 270432Z 19009KT 17/09 A2998 RMK A01 T01650086  RH  060%=      5-min Rain = 0
KES1 270433Z 20010KT 17/09 A2998 RMK A01 T01650086  RH  059%=      5-min Rain = 0
KES1 270434Z 20010KT 17/09 A2998 RMK A01 T01660086  RH  059%=      5-min Rain = 0
KES1 270435Z 19009KT 17/09 A2998 RMK A01 T01660087  RH  059%=      5-min Rain = 0
KES1 270436Z 19010KT 17/09 A2997 RMK A01 T01660087  RH  060%=      5-min Rain = 0
KES1 270437Z 19009KT 17/09 A2997 RMK A01 T01660087  RH  059%=      5-min Rain = 0
KES1 270438Z 19009KT 17/09 A2997 RMK A01 T01670087  RH  060%=      5-min Rain = 0
KES1 270439Z 19009KT 17/09 A2997 RMK A01 T01660087  RH  060%=      5-min Rain = 0
KES1 270440Z 19009KT 17/09 A2997 RMK A01 T01660088  RH  060%=      5-min Rain = 0
KES1 270441Z 19010KT 17/09 A2996 RMK A01 T01670088  RH  060%=      5-min Rain = 0
KES1 270442Z 18009KT 17/09 A2996 RMK A01 T01660088  RH  060%=      5-min Rain = 0
KES1 270443Z 19009KT 17/09 A2996 RMK A01 T01660088  RH  060%=      5-min Rain = 0
KES1 270444Z 19010KT 17/09 A2996 RMK A01 T01660088  RH  060%=      5-min Rain = 0
KES1 270445Z 18010KT 17/09 A2996 RMK A01 T01670088  RH  059%=      5-min Rain = 0
KES1 270446Z 19011KT 17/09 A2995 RMK A01 T01670088  RH  059%=      5-min Rain = 0
KES1 270447Z 19010KT 17/09 A2995 RMK A01 T01670087  RH  059%=      5-min Rain = 0
KES1 270448Z 19011KT 17/09 A2995 RMK A01 T01680088  RH  059%=      5-min Rain = 0
KES1 270449Z 19010KT 17/09 A2995 RMK A01 T01680088  RH  059%=      5-min Rain = 0
KES1 270450Z 18009KT 17/09 A2995 RMK A01 T01680089  RH  060%=      5-min Rain = 0
KES1 270451Z 19010KT 17/09 A2995 RMK A01 T01670089  RH  060%=      5-min Rain = 0
KES1 270452Z 18012KT 17/09 A2995 RMK A01 T01670089  RH  060%=      5-min Rain = 0
KES1 270453Z 19010KT 17/09 A2995 RMK A01 T01670089  RH  060%=      5-min Rain = 0
KES1 270454Z 18010KT 17/09 A2995 RMK A01 T01670089  RH  060%=      5-min Rain = 0
KES1 270455Z 19010KT 17/09 A2995 RMK A01 T01670090  RH  060%=      5-min Rain = 0
KES1 270456Z 18012KT 17/09 A2994 RMK A01 T01670090  RH  061%=      5-min Rain = 0
KES1 270457Z 18010KT 17/09 A2994 RMK A01 T01660090  RH  061%=      5-min Rain = 0
KES1 270458Z 18009KT 17/09 A2994 RMK A01 T01650091  RH  061%=      5-min Rain = 0
KES1 270459Z 18011KT 16/09 A2994 RMK A01 T01640091  RH  062%=      5-min Rain = 0

Page generated in 0.1299 seconds.